<?xml version="1.0" encoding="UTF-8" standalone="no" ?>
<gpx xmlns="http://www.topografix.com/GPX/1/1" xmlns:xsi="http://www.w3.org/2001/XMLSchema-instance" xsi:schemaLocation="http://www.topografix.com/GPX/1/1 http://www.topografix.com/GPX/1/1/gpx.xsd" version="1.1" creator="VisuGPX - https://www.visugpx.com">
  <metadata>
    <name>ASLPM marche Sainte Soulle le 23 novembre 2015</name>
    <desc><![CDATA[ASLPM marche Sainte Soulle le 23 Novembre 2015
]]></desc>
  </metadata>
  <trk>
    <name><![CDATA[23/11/2015 09:05:06]]></name>
    <trkseg>
      <trkpt lat="46.18451" lon="-1.00858">
        <ele>35</ele>
        <time>2015-11-23T08:05:06Z</time>
      </trkpt>
      <trkpt lat="46.18451" lon="-1.0086">
        <ele>35</ele>
        <time>2015-11-23T08:05:07Z</time>
      </trkpt>
      <trkpt lat="46.18452" lon="-1.00861">
        <ele>35</ele>
        <time>2015-11-23T08:05:09Z</time>
      </trkpt>
      <trkpt lat="46.18453" lon="-1.00859">
        <ele>35</ele>
        <time>2015-11-23T08:05:11Z</time>
      </trkpt>
      <trkpt lat="46.18452" lon="-1.00858">
        <ele>35</ele>
        <time>2015-11-23T08:05:13Z</time>
      </trkpt>
      <trkpt lat="46.18453" lon="-1.00854">
        <ele>34.9</ele>
        <time>2015-11-23T08:05:14Z</time>
      </trkpt>
      <trkpt lat="46.18457" lon="-1.0086">
        <ele>35</ele>
        <time>2015-11-23T08:05:18Z</time>
      </trkpt>
      <trkpt lat="46.18457" lon="-1.00858">
        <ele>34.9</ele>
        <time>2015-11-23T08:05:24Z</time>
      </trkpt>
      <trkpt lat="46.18457" lon="-1.00858">
        <ele>34.9</ele>
        <time>2015-11-23T08:05:25Z</time>
      </trkpt>
      <trkpt lat="46.18462" lon="-1.00862">
        <ele>35</ele>
        <time>2015-11-23T08:05:33Z</time>
      </trkpt>
      <trkpt lat="46.18465" lon="-1.00862">
        <ele>35</ele>
        <time>2015-11-23T08:05:37Z</time>
      </trkpt>
      <trkpt lat="46.18472" lon="-1.00864">
        <ele>35</ele>
        <time>2015-11-23T08:07:15Z</time>
      </trkpt>
      <trkpt lat="46.18474" lon="-1.00865">
        <ele>34.9</ele>
        <time>2015-11-23T08:07:20Z</time>
      </trkpt>
      <trkpt lat="46.1849" lon="-1.0085">
        <ele>34.2</ele>
        <time>2015-11-23T08:07:34Z</time>
      </trkpt>
      <trkpt lat="46.18507" lon="-1.00844">
        <ele>33.8</ele>
        <time>2015-11-23T08:07:46Z</time>
      </trkpt>
      <trkpt lat="46.18513" lon="-1.00845">
        <ele>33.7</ele>
        <time>2015-11-23T08:07:50Z</time>
      </trkpt>
      <trkpt lat="46.18528" lon="-1.00862">
        <ele>34</ele>
        <time>2015-11-23T08:08:03Z</time>
      </trkpt>
      <trkpt lat="46.18543" lon="-1.00877">
        <ele>34</ele>
        <time>2015-11-23T08:08:17Z</time>
      </trkpt>
      <trkpt lat="46.18545" lon="-1.00881">
        <ele>34.1</ele>
        <time>2015-11-23T08:08:21Z</time>
      </trkpt>
      <trkpt lat="46.18548" lon="-1.00884">
        <ele>34.1</ele>
        <time>2015-11-23T08:08:27Z</time>
      </trkpt>
      <trkpt lat="46.18558" lon="-1.00906">
        <ele>34</ele>
        <time>2015-11-23T08:08:40Z</time>
      </trkpt>
      <trkpt lat="46.18572" lon="-1.00925">
        <ele>34</ele>
        <time>2015-11-23T08:08:54Z</time>
      </trkpt>
      <trkpt lat="46.18574" lon="-1.00931">
        <ele>34</ele>
        <time>2015-11-23T08:08:58Z</time>
      </trkpt>
      <trkpt lat="46.1858" lon="-1.00945">
        <ele>34</ele>
        <time>2015-11-23T08:09:06Z</time>
      </trkpt>
      <trkpt lat="46.18581" lon="-1.00948">
        <ele>34</ele>
        <time>2015-11-23T08:09:08Z</time>
      </trkpt>
      <trkpt lat="46.18579" lon="-1.00961">
        <ele>34</ele>
        <time>2015-11-23T08:09:25Z</time>
      </trkpt>
      <trkpt lat="46.18578" lon="-1.00987">
        <ele>34.1</ele>
        <time>2015-11-23T08:09:45Z</time>
      </trkpt>
      <trkpt lat="46.18575" lon="-1.00999">
        <ele>34.3</ele>
        <time>2015-11-23T08:09:52Z</time>
      </trkpt>
      <trkpt lat="46.18572" lon="-1.01012">
        <ele>34.7</ele>
        <time>2015-11-23T08:09:59Z</time>
      </trkpt>
      <trkpt lat="46.1857" lon="-1.01018">
        <ele>34.8</ele>
        <time>2015-11-23T08:10:04Z</time>
      </trkpt>
      <trkpt lat="46.18561" lon="-1.01042">
        <ele>35.4</ele>
        <time>2015-11-23T08:10:17Z</time>
      </trkpt>
      <trkpt lat="46.1856" lon="-1.01043">
        <ele>35.5</ele>
        <time>2015-11-23T08:10:18Z</time>
      </trkpt>
      <trkpt lat="46.1855" lon="-1.01066">
        <ele>36</ele>
        <time>2015-11-23T08:10:33Z</time>
      </trkpt>
      <trkpt lat="46.18533" lon="-1.01075">
        <ele>36</ele>
        <time>2015-11-23T08:10:49Z</time>
      </trkpt>
      <trkpt lat="46.18516" lon="-1.01084">
        <ele>36.4</ele>
        <time>2015-11-23T08:11:03Z</time>
      </trkpt>
      <trkpt lat="46.18508" lon="-1.01096">
        <ele>36.8</ele>
        <time>2015-11-23T08:11:14Z</time>
      </trkpt>
      <trkpt lat="46.18495" lon="-1.01108">
        <ele>37.2</ele>
        <time>2015-11-23T08:11:44Z</time>
      </trkpt>
      <trkpt lat="46.18478" lon="-1.01119">
        <ele>37.8</ele>
        <time>2015-11-23T08:11:55Z</time>
      </trkpt>
      <trkpt lat="46.18461" lon="-1.01129">
        <ele>38.2</ele>
        <time>2015-11-23T08:12:07Z</time>
      </trkpt>
      <trkpt lat="46.18445" lon="-1.01139">
        <ele>39</ele>
        <time>2015-11-23T08:12:19Z</time>
      </trkpt>
      <trkpt lat="46.18425" lon="-1.0114">
        <ele>39</ele>
        <time>2015-11-23T08:12:31Z</time>
      </trkpt>
      <trkpt lat="46.18408" lon="-1.01135">
        <ele>39.3</ele>
        <time>2015-11-23T08:12:43Z</time>
      </trkpt>
      <trkpt lat="46.18389" lon="-1.01128">
        <ele>39.6</ele>
        <time>2015-11-23T08:12:57Z</time>
      </trkpt>
      <trkpt lat="46.18371" lon="-1.01126">
        <ele>38.9</ele>
        <time>2015-11-23T08:13:12Z</time>
      </trkpt>
      <trkpt lat="46.18352" lon="-1.0113">
        <ele>38.8</ele>
        <time>2015-11-23T08:13:26Z</time>
      </trkpt>
      <trkpt lat="46.18333" lon="-1.01131">
        <ele>39</ele>
        <time>2015-11-23T08:13:40Z</time>
      </trkpt>
      <trkpt lat="46.18315" lon="-1.01122">
        <ele>39</ele>
        <time>2015-11-23T08:13:53Z</time>
      </trkpt>
      <trkpt lat="46.18313" lon="-1.01095">
        <ele>39</ele>
        <time>2015-11-23T08:14:06Z</time>
      </trkpt>
      <trkpt lat="46.18317" lon="-1.01077">
        <ele>39</ele>
        <time>2015-11-23T08:14:15Z</time>
      </trkpt>
      <trkpt lat="46.18319" lon="-1.01066">
        <ele>39</ele>
        <time>2015-11-23T08:14:20Z</time>
      </trkpt>
      <trkpt lat="46.18323" lon="-1.01039">
        <ele>39</ele>
        <time>2015-11-23T08:14:33Z</time>
      </trkpt>
      <trkpt lat="46.18324" lon="-1.01013">
        <ele>38.7</ele>
        <time>2015-11-23T08:14:46Z</time>
      </trkpt>
      <trkpt lat="46.18323" lon="-1.01008">
        <ele>38.5</ele>
        <time>2015-11-23T08:14:49Z</time>
      </trkpt>
      <trkpt lat="46.1832" lon="-1.01001">
        <ele>38.5</ele>
        <time>2015-11-23T08:14:53Z</time>
      </trkpt>
      <trkpt lat="46.18315" lon="-1.00994">
        <ele>38.7</ele>
        <time>2015-11-23T08:14:58Z</time>
      </trkpt>
      <trkpt lat="46.183" lon="-1.00994">
        <ele>39</ele>
        <time>2015-11-23T08:15:40Z</time>
      </trkpt>
      <trkpt lat="46.1829" lon="-1.01002">
        <ele>39</ele>
        <time>2015-11-23T08:15:50Z</time>
      </trkpt>
      <trkpt lat="46.18275" lon="-1.01014">
        <ele>39</ele>
        <time>2015-11-23T08:16:16Z</time>
      </trkpt>
      <trkpt lat="46.18257" lon="-1.01026">
        <ele>39</ele>
        <time>2015-11-23T08:16:30Z</time>
      </trkpt>
      <trkpt lat="46.1824" lon="-1.01035">
        <ele>39</ele>
        <time>2015-11-23T08:16:44Z</time>
      </trkpt>
      <trkpt lat="46.18222" lon="-1.01045">
        <ele>39</ele>
        <time>2015-11-23T08:16:58Z</time>
      </trkpt>
      <trkpt lat="46.18206" lon="-1.01057">
        <ele>39</ele>
        <time>2015-11-23T08:17:12Z</time>
      </trkpt>
      <trkpt lat="46.18189" lon="-1.01068">
        <ele>38.4</ele>
        <time>2015-11-23T08:17:26Z</time>
      </trkpt>
      <trkpt lat="46.18172" lon="-1.0108">
        <ele>38</ele>
        <time>2015-11-23T08:17:41Z</time>
      </trkpt>
      <trkpt lat="46.18154" lon="-1.01089">
        <ele>38</ele>
        <time>2015-11-23T08:17:55Z</time>
      </trkpt>
      <trkpt lat="46.18136" lon="-1.011">
        <ele>37.9</ele>
        <time>2015-11-23T08:18:09Z</time>
      </trkpt>
      <trkpt lat="46.1812" lon="-1.01112">
        <ele>37.3</ele>
        <time>2015-11-23T08:18:23Z</time>
      </trkpt>
      <trkpt lat="46.18102" lon="-1.0112">
        <ele>37</ele>
        <time>2015-11-23T08:18:38Z</time>
      </trkpt>
      <trkpt lat="46.18084" lon="-1.0113">
        <ele>37</ele>
        <time>2015-11-23T08:18:51Z</time>
      </trkpt>
      <trkpt lat="46.18067" lon="-1.01137">
        <ele>37</ele>
        <time>2015-11-23T08:19:05Z</time>
      </trkpt>
      <trkpt lat="46.18053" lon="-1.01119">
        <ele>37.1</ele>
        <time>2015-11-23T08:19:21Z</time>
      </trkpt>
      <trkpt lat="46.18048" lon="-1.01109">
        <ele>37.3</ele>
        <time>2015-11-23T08:19:30Z</time>
      </trkpt>
      <trkpt lat="46.18044" lon="-1.01102">
        <ele>37.6</ele>
        <time>2015-11-23T08:19:35Z</time>
      </trkpt>
      <trkpt lat="46.18041" lon="-1.01098">
        <ele>37.8</ele>
        <time>2015-11-23T08:19:40Z</time>
      </trkpt>
      <trkpt lat="46.1804" lon="-1.01098">
        <ele>37.8</ele>
        <time>2015-11-23T08:19:41Z</time>
      </trkpt>
      <trkpt lat="46.18032" lon="-1.01084">
        <ele>38</ele>
        <time>2015-11-23T08:19:51Z</time>
      </trkpt>
      <trkpt lat="46.18027" lon="-1.01078">
        <ele>38</ele>
        <time>2015-11-23T08:19:55Z</time>
      </trkpt>
      <trkpt lat="46.18012" lon="-1.01062">
        <ele>38</ele>
        <time>2015-11-23T08:20:09Z</time>
      </trkpt>
      <trkpt lat="46.18008" lon="-1.0106">
        <ele>38</ele>
        <time>2015-11-23T08:20:13Z</time>
      </trkpt>
      <trkpt lat="46.17992" lon="-1.01047">
        <ele>38</ele>
        <time>2015-11-23T08:20:27Z</time>
      </trkpt>
      <trkpt lat="46.17975" lon="-1.01037">
        <ele>38</ele>
        <time>2015-11-23T08:20:42Z</time>
      </trkpt>
      <trkpt lat="46.17956" lon="-1.01032">
        <ele>38</ele>
        <time>2015-11-23T08:20:55Z</time>
      </trkpt>
      <trkpt lat="46.17949" lon="-1.0103">
        <ele>38</ele>
        <time>2015-11-23T08:21:00Z</time>
      </trkpt>
      <trkpt lat="46.17941" lon="-1.01027">
        <ele>38</ele>
        <time>2015-11-23T08:21:06Z</time>
      </trkpt>
      <trkpt lat="46.17924" lon="-1.01017">
        <ele>38</ele>
        <time>2015-11-23T08:21:19Z</time>
      </trkpt>
      <trkpt lat="46.17907" lon="-1.01012">
        <ele>38</ele>
        <time>2015-11-23T08:21:35Z</time>
      </trkpt>
      <trkpt lat="46.17889" lon="-1.01007">
        <ele>38</ele>
        <time>2015-11-23T08:21:48Z</time>
      </trkpt>
      <trkpt lat="46.17872" lon="-1.00999">
        <ele>38</ele>
        <time>2015-11-23T08:22:01Z</time>
      </trkpt>
      <trkpt lat="46.17852" lon="-1.00995">
        <ele>38</ele>
        <time>2015-11-23T08:22:14Z</time>
      </trkpt>
      <trkpt lat="46.17834" lon="-1.00991">
        <ele>38</ele>
        <time>2015-11-23T08:22:26Z</time>
      </trkpt>
      <trkpt lat="46.17819" lon="-1.0099">
        <ele>38</ele>
        <time>2015-11-23T08:22:38Z</time>
      </trkpt>
      <trkpt lat="46.17813" lon="-1.0099">
        <ele>38</ele>
        <time>2015-11-23T08:22:43Z</time>
      </trkpt>
      <trkpt lat="46.17804" lon="-1.0099">
        <ele>37.9</ele>
        <time>2015-11-23T08:22:50Z</time>
      </trkpt>
      <trkpt lat="46.17797" lon="-1.00992">
        <ele>37.7</ele>
        <time>2015-11-23T08:22:55Z</time>
      </trkpt>
      <trkpt lat="46.17796" lon="-1.00992">
        <ele>37.7</ele>
        <time>2015-11-23T08:22:56Z</time>
      </trkpt>
      <trkpt lat="46.17778" lon="-1.00996">
        <ele>37</ele>
        <time>2015-11-23T08:23:08Z</time>
      </trkpt>
      <trkpt lat="46.17759" lon="-1.00999">
        <ele>37</ele>
        <time>2015-11-23T08:23:21Z</time>
      </trkpt>
      <trkpt lat="46.17746" lon="-1.01001">
        <ele>37</ele>
        <time>2015-11-23T08:23:31Z</time>
      </trkpt>
      <trkpt lat="46.17733" lon="-1.01002">
        <ele>37</ele>
        <time>2015-11-23T08:23:41Z</time>
      </trkpt>
      <trkpt lat="46.17726" lon="-1.01">
        <ele>37</ele>
        <time>2015-11-23T08:23:47Z</time>
      </trkpt>
      <trkpt lat="46.17708" lon="-1.00998">
        <ele>36.5</ele>
        <time>2015-11-23T08:24:01Z</time>
      </trkpt>
      <trkpt lat="46.17689" lon="-1.00993">
        <ele>36.3</ele>
        <time>2015-11-23T08:24:15Z</time>
      </trkpt>
      <trkpt lat="46.1767" lon="-1.00991">
        <ele>36.3</ele>
        <time>2015-11-23T08:24:28Z</time>
      </trkpt>
      <trkpt lat="46.17651" lon="-1.00991">
        <ele>36.3</ele>
        <time>2015-11-23T08:24:42Z</time>
      </trkpt>
      <trkpt lat="46.17633" lon="-1.00993">
        <ele>36.4</ele>
        <time>2015-11-23T08:24:56Z</time>
      </trkpt>
      <trkpt lat="46.17616" lon="-1.00989">
        <ele>36.9</ele>
        <time>2015-11-23T08:25:09Z</time>
      </trkpt>
      <trkpt lat="46.17613" lon="-1.00988">
        <ele>37</ele>
        <time>2015-11-23T08:25:11Z</time>
      </trkpt>
      <trkpt lat="46.17596" lon="-1.00983">
        <ele>37</ele>
        <time>2015-11-23T08:25:28Z</time>
      </trkpt>
      <trkpt lat="46.17582" lon="-1.00965">
        <ele>37</ele>
        <time>2015-11-23T08:25:43Z</time>
      </trkpt>
      <trkpt lat="46.1757" lon="-1.00945">
        <ele>37.5</ele>
        <time>2015-11-23T08:25:57Z</time>
      </trkpt>
      <trkpt lat="46.17563" lon="-1.00936">
        <ele>37.8</ele>
        <time>2015-11-23T08:26:05Z</time>
      </trkpt>
      <trkpt lat="46.1756" lon="-1.00935">
        <ele>37.9</ele>
        <time>2015-11-23T08:26:07Z</time>
      </trkpt>
      <trkpt lat="46.17554" lon="-1.00927">
        <ele>38</ele>
        <time>2015-11-23T08:26:12Z</time>
      </trkpt>
      <trkpt lat="46.17536" lon="-1.00918">
        <ele>38</ele>
        <time>2015-11-23T08:26:24Z</time>
      </trkpt>
      <trkpt lat="46.17518" lon="-1.00922">
        <ele>37.8</ele>
        <time>2015-11-23T08:26:37Z</time>
      </trkpt>
      <trkpt lat="46.175" lon="-1.0093">
        <ele>37.5</ele>
        <time>2015-11-23T08:26:50Z</time>
      </trkpt>
      <trkpt lat="46.17482" lon="-1.00935">
        <ele>37.8</ele>
        <time>2015-11-23T08:27:04Z</time>
      </trkpt>
      <trkpt lat="46.17464" lon="-1.0093">
        <ele>37.9</ele>
        <time>2015-11-23T08:27:19Z</time>
      </trkpt>
      <trkpt lat="46.17458" lon="-1.00926">
        <ele>37.8</ele>
        <time>2015-11-23T08:27:25Z</time>
      </trkpt>
      <trkpt lat="46.17454" lon="-1.00923">
        <ele>37.8</ele>
        <time>2015-11-23T08:27:29Z</time>
      </trkpt>
      <trkpt lat="46.17441" lon="-1.00917">
        <ele>38</ele>
        <time>2015-11-23T08:27:40Z</time>
      </trkpt>
      <trkpt lat="46.17436" lon="-1.00914">
        <ele>38</ele>
        <time>2015-11-23T08:27:45Z</time>
      </trkpt>
      <trkpt lat="46.17418" lon="-1.00907">
        <ele>38</ele>
        <time>2015-11-23T08:28:01Z</time>
      </trkpt>
      <trkpt lat="46.174" lon="-1.009">
        <ele>37.7</ele>
        <time>2015-11-23T08:28:15Z</time>
      </trkpt>
      <trkpt lat="46.17381" lon="-1.00898">
        <ele>37.5</ele>
        <time>2015-11-23T08:28:29Z</time>
      </trkpt>
      <trkpt lat="46.17363" lon="-1.00897">
        <ele>37</ele>
        <time>2015-11-23T08:28:42Z</time>
      </trkpt>
      <trkpt lat="46.17351" lon="-1.00903">
        <ele>37</ele>
        <time>2015-11-23T08:28:51Z</time>
      </trkpt>
      <trkpt lat="46.17344" lon="-1.00906">
        <ele>37</ele>
        <time>2015-11-23T08:28:56Z</time>
      </trkpt>
      <trkpt lat="46.17343" lon="-1.00907">
        <ele>37</ele>
        <time>2015-11-23T08:28:57Z</time>
      </trkpt>
      <trkpt lat="46.17327" lon="-1.00919">
        <ele>37</ele>
        <time>2015-11-23T08:29:10Z</time>
      </trkpt>
      <trkpt lat="46.17313" lon="-1.00936">
        <ele>37</ele>
        <time>2015-11-23T08:29:23Z</time>
      </trkpt>
      <trkpt lat="46.17298" lon="-1.00951">
        <ele>37</ele>
        <time>2015-11-23T08:29:38Z</time>
      </trkpt>
      <trkpt lat="46.17286" lon="-1.00963">
        <ele>37</ele>
        <time>2015-11-23T08:29:48Z</time>
      </trkpt>
      <trkpt lat="46.1728" lon="-1.00972">
        <ele>37</ele>
        <time>2015-11-23T08:29:55Z</time>
      </trkpt>
      <trkpt lat="46.17268" lon="-1.00986">
        <ele>37</ele>
        <time>2015-11-23T08:30:08Z</time>
      </trkpt>
      <trkpt lat="46.17254" lon="-1.01">
        <ele>37</ele>
        <time>2015-11-23T08:30:33Z</time>
      </trkpt>
      <trkpt lat="46.17244" lon="-1.01018">
        <ele>37.7</ele>
        <time>2015-11-23T08:30:57Z</time>
      </trkpt>
      <trkpt lat="46.17254" lon="-1.01013">
        <ele>37.4</ele>
        <time>2015-11-23T08:31:34Z</time>
      </trkpt>
      <trkpt lat="46.1724" lon="-1.01025">
        <ele>37.9</ele>
        <time>2015-11-23T08:32:15Z</time>
      </trkpt>
      <trkpt lat="46.17236" lon="-1.0103">
        <ele>38</ele>
        <time>2015-11-23T08:34:16Z</time>
      </trkpt>
      <trkpt lat="46.17235" lon="-1.01032">
        <ele>38</ele>
        <time>2015-11-23T08:34:28Z</time>
      </trkpt>
      <trkpt lat="46.1722" lon="-1.01046">
        <ele>38</ele>
        <time>2015-11-23T08:34:49Z</time>
      </trkpt>
      <trkpt lat="46.17205" lon="-1.01063">
        <ele>38.6</ele>
        <time>2015-11-23T08:35:04Z</time>
      </trkpt>
      <trkpt lat="46.17196" lon="-1.01071">
        <ele>39</ele>
        <time>2015-11-23T08:35:13Z</time>
      </trkpt>
      <trkpt lat="46.17186" lon="-1.01078">
        <ele>39</ele>
        <time>2015-11-23T08:35:22Z</time>
      </trkpt>
      <trkpt lat="46.17168" lon="-1.01083">
        <ele>39</ele>
        <time>2015-11-23T08:35:35Z</time>
      </trkpt>
      <trkpt lat="46.1715" lon="-1.01085">
        <ele>39</ele>
        <time>2015-11-23T08:35:49Z</time>
      </trkpt>
      <trkpt lat="46.17141" lon="-1.01086">
        <ele>39</ele>
        <time>2015-11-23T08:35:58Z</time>
      </trkpt>
      <trkpt lat="46.17129" lon="-1.01067">
        <ele>39</ele>
        <time>2015-11-23T08:36:24Z</time>
      </trkpt>
      <trkpt lat="46.17111" lon="-1.01065">
        <ele>39</ele>
        <time>2015-11-23T08:36:39Z</time>
      </trkpt>
      <trkpt lat="46.17107" lon="-1.01066">
        <ele>39</ele>
        <time>2015-11-23T08:36:43Z</time>
      </trkpt>
      <trkpt lat="46.17102" lon="-1.01066">
        <ele>39</ele>
        <time>2015-11-23T08:36:48Z</time>
      </trkpt>
      <trkpt lat="46.17098" lon="-1.01066">
        <ele>39</ele>
        <time>2015-11-23T08:36:51Z</time>
      </trkpt>
      <trkpt lat="46.17079" lon="-1.0107">
        <ele>39.1</ele>
        <time>2015-11-23T08:37:05Z</time>
      </trkpt>
      <trkpt lat="46.17061" lon="-1.01074">
        <ele>39.8</ele>
        <time>2015-11-23T08:37:20Z</time>
      </trkpt>
      <trkpt lat="46.17042" lon="-1.01076">
        <ele>40.4</ele>
        <time>2015-11-23T08:37:35Z</time>
      </trkpt>
      <trkpt lat="46.17023" lon="-1.01079">
        <ele>40.9</ele>
        <time>2015-11-23T08:37:49Z</time>
      </trkpt>
      <trkpt lat="46.17005" lon="-1.01085">
        <ele>41</ele>
        <time>2015-11-23T08:38:04Z</time>
      </trkpt>
      <trkpt lat="46.16987" lon="-1.01092">
        <ele>41</ele>
        <time>2015-11-23T08:38:18Z</time>
      </trkpt>
      <trkpt lat="46.1697" lon="-1.01098">
        <ele>41</ele>
        <time>2015-11-23T08:38:30Z</time>
      </trkpt>
      <trkpt lat="46.16953" lon="-1.01107">
        <ele>41</ele>
        <time>2015-11-23T08:38:43Z</time>
      </trkpt>
      <trkpt lat="46.16935" lon="-1.01117">
        <ele>41</ele>
        <time>2015-11-23T08:38:57Z</time>
      </trkpt>
      <trkpt lat="46.16917" lon="-1.01125">
        <ele>41</ele>
        <time>2015-11-23T08:39:11Z</time>
      </trkpt>
      <trkpt lat="46.169" lon="-1.01133">
        <ele>41.6</ele>
        <time>2015-11-23T08:39:25Z</time>
      </trkpt>
      <trkpt lat="46.16882" lon="-1.0114">
        <ele>42</ele>
        <time>2015-11-23T08:39:39Z</time>
      </trkpt>
      <trkpt lat="46.16864" lon="-1.01149">
        <ele>41.7</ele>
        <time>2015-11-23T08:39:53Z</time>
      </trkpt>
      <trkpt lat="46.16846" lon="-1.01157">
        <ele>41.3</ele>
        <time>2015-11-23T08:40:07Z</time>
      </trkpt>
      <trkpt lat="46.16828" lon="-1.01166">
        <ele>41</ele>
        <time>2015-11-23T08:40:21Z</time>
      </trkpt>
      <trkpt lat="46.1681" lon="-1.01174">
        <ele>41</ele>
        <time>2015-11-23T08:40:35Z</time>
      </trkpt>
      <trkpt lat="46.16792" lon="-1.01182">
        <ele>41</ele>
        <time>2015-11-23T08:40:49Z</time>
      </trkpt>
      <trkpt lat="46.16774" lon="-1.01191">
        <ele>41</ele>
        <time>2015-11-23T08:41:03Z</time>
      </trkpt>
      <trkpt lat="46.16756" lon="-1.012">
        <ele>41</ele>
        <time>2015-11-23T08:41:17Z</time>
      </trkpt>
      <trkpt lat="46.16739" lon="-1.01209">
        <ele>41</ele>
        <time>2015-11-23T08:41:31Z</time>
      </trkpt>
      <trkpt lat="46.16721" lon="-1.01216">
        <ele>41</ele>
        <time>2015-11-23T08:41:45Z</time>
      </trkpt>
      <trkpt lat="46.16703" lon="-1.01223">
        <ele>41</ele>
        <time>2015-11-23T08:42:00Z</time>
      </trkpt>
      <trkpt lat="46.16685" lon="-1.01231">
        <ele>41</ele>
        <time>2015-11-23T08:42:14Z</time>
      </trkpt>
      <trkpt lat="46.16668" lon="-1.01239">
        <ele>41</ele>
        <time>2015-11-23T08:42:28Z</time>
      </trkpt>
      <trkpt lat="46.16651" lon="-1.01248">
        <ele>41</ele>
        <time>2015-11-23T08:42:42Z</time>
      </trkpt>
      <trkpt lat="46.16634" lon="-1.01257">
        <ele>41</ele>
        <time>2015-11-23T08:42:56Z</time>
      </trkpt>
      <trkpt lat="46.16616" lon="-1.01265">
        <ele>41.5</ele>
        <time>2015-11-23T08:43:10Z</time>
      </trkpt>
      <trkpt lat="46.16599" lon="-1.01273">
        <ele>41.5</ele>
        <time>2015-11-23T08:43:23Z</time>
      </trkpt>
      <trkpt lat="46.16581" lon="-1.01282">
        <ele>41.2</ele>
        <time>2015-11-23T08:43:37Z</time>
      </trkpt>
      <trkpt lat="46.16563" lon="-1.01289">
        <ele>41.4</ele>
        <time>2015-11-23T08:43:51Z</time>
      </trkpt>
      <trkpt lat="46.16545" lon="-1.01297">
        <ele>41.7</ele>
        <time>2015-11-23T08:44:05Z</time>
      </trkpt>
      <trkpt lat="46.16528" lon="-1.01305">
        <ele>42</ele>
        <time>2015-11-23T08:44:19Z</time>
      </trkpt>
      <trkpt lat="46.1651" lon="-1.01313">
        <ele>41.4</ele>
        <time>2015-11-23T08:44:34Z</time>
      </trkpt>
      <trkpt lat="46.16492" lon="-1.01321">
        <ele>41</ele>
        <time>2015-11-23T08:44:48Z</time>
      </trkpt>
      <trkpt lat="46.16489" lon="-1.01322">
        <ele>41</ele>
        <time>2015-11-23T08:44:50Z</time>
      </trkpt>
      <trkpt lat="46.16472" lon="-1.01331">
        <ele>41</ele>
        <time>2015-11-23T08:45:04Z</time>
      </trkpt>
      <trkpt lat="46.16454" lon="-1.0134">
        <ele>41.1</ele>
        <time>2015-11-23T08:45:18Z</time>
      </trkpt>
      <trkpt lat="46.16436" lon="-1.01349">
        <ele>41</ele>
        <time>2015-11-23T08:45:32Z</time>
      </trkpt>
      <trkpt lat="46.16421" lon="-1.0136">
        <ele>41</ele>
        <time>2015-11-23T08:45:46Z</time>
      </trkpt>
      <trkpt lat="46.1642" lon="-1.01362">
        <ele>41</ele>
        <time>2015-11-23T08:45:47Z</time>
      </trkpt>
      <trkpt lat="46.16423" lon="-1.0137">
        <ele>40.8</ele>
        <time>2015-11-23T08:45:52Z</time>
      </trkpt>
      <trkpt lat="46.16437" lon="-1.01387">
        <ele>40.7</ele>
        <time>2015-11-23T08:46:06Z</time>
      </trkpt>
      <trkpt lat="46.16452" lon="-1.01403">
        <ele>41.1</ele>
        <time>2015-11-23T08:46:20Z</time>
      </trkpt>
      <trkpt lat="46.16467" lon="-1.0142">
        <ele>41.7</ele>
        <time>2015-11-23T08:46:34Z</time>
      </trkpt>
      <trkpt lat="46.16482" lon="-1.01437">
        <ele>41.2</ele>
        <time>2015-11-23T08:46:48Z</time>
      </trkpt>
      <trkpt lat="46.16496" lon="-1.01454">
        <ele>41</ele>
        <time>2015-11-23T08:47:02Z</time>
      </trkpt>
      <trkpt lat="46.1651" lon="-1.01471">
        <ele>41</ele>
        <time>2015-11-23T08:47:15Z</time>
      </trkpt>
      <trkpt lat="46.16524" lon="-1.01487">
        <ele>41</ele>
        <time>2015-11-23T08:47:29Z</time>
      </trkpt>
      <trkpt lat="46.16538" lon="-1.01504">
        <ele>41</ele>
        <time>2015-11-23T08:47:43Z</time>
      </trkpt>
      <trkpt lat="46.16553" lon="-1.01522">
        <ele>41</ele>
        <time>2015-11-23T08:47:57Z</time>
      </trkpt>
      <trkpt lat="46.16564" lon="-1.01533">
        <ele>41</ele>
        <time>2015-11-23T08:48:08Z</time>
      </trkpt>
      <trkpt lat="46.16565" lon="-1.01535">
        <ele>41</ele>
        <time>2015-11-23T08:48:10Z</time>
      </trkpt>
      <trkpt lat="46.16581" lon="-1.01552">
        <ele>41</ele>
        <time>2015-11-23T08:48:26Z</time>
      </trkpt>
      <trkpt lat="46.16596" lon="-1.01569">
        <ele>40.7</ele>
        <time>2015-11-23T08:48:38Z</time>
      </trkpt>
      <trkpt lat="46.1661" lon="-1.01585">
        <ele>41</ele>
        <time>2015-11-23T08:48:52Z</time>
      </trkpt>
      <trkpt lat="46.16625" lon="-1.01603">
        <ele>40.5</ele>
        <time>2015-11-23T08:49:07Z</time>
      </trkpt>
      <trkpt lat="46.1664" lon="-1.01619">
        <ele>40</ele>
        <time>2015-11-23T08:49:20Z</time>
      </trkpt>
      <trkpt lat="46.16654" lon="-1.01636">
        <ele>40</ele>
        <time>2015-11-23T08:49:34Z</time>
      </trkpt>
      <trkpt lat="46.16669" lon="-1.01654">
        <ele>40</ele>
        <time>2015-11-23T08:49:47Z</time>
      </trkpt>
      <trkpt lat="46.16683" lon="-1.0167">
        <ele>40</ele>
        <time>2015-11-23T08:50:00Z</time>
      </trkpt>
      <trkpt lat="46.16698" lon="-1.01688">
        <ele>40</ele>
        <time>2015-11-23T08:50:15Z</time>
      </trkpt>
      <trkpt lat="46.16713" lon="-1.01703">
        <ele>39.8</ele>
        <time>2015-11-23T08:50:28Z</time>
      </trkpt>
      <trkpt lat="46.16727" lon="-1.01722">
        <ele>39</ele>
        <time>2015-11-23T08:50:43Z</time>
      </trkpt>
      <trkpt lat="46.16741" lon="-1.01739">
        <ele>39</ele>
        <time>2015-11-23T08:50:58Z</time>
      </trkpt>
      <trkpt lat="46.16755" lon="-1.01756">
        <ele>38.8</ele>
        <time>2015-11-23T08:51:14Z</time>
      </trkpt>
      <trkpt lat="46.16756" lon="-1.01757">
        <ele>38.8</ele>
        <time>2015-11-23T08:51:15Z</time>
      </trkpt>
      <trkpt lat="46.16765" lon="-1.01774">
        <ele>38.5</ele>
        <time>2015-11-23T08:52:04Z</time>
      </trkpt>
      <trkpt lat="46.16773" lon="-1.01799">
        <ele>38.2</ele>
        <time>2015-11-23T08:52:21Z</time>
      </trkpt>
      <trkpt lat="46.16781" lon="-1.01823">
        <ele>38</ele>
        <time>2015-11-23T08:52:35Z</time>
      </trkpt>
      <trkpt lat="46.16786" lon="-1.01849">
        <ele>38</ele>
        <time>2015-11-23T08:52:50Z</time>
      </trkpt>
      <trkpt lat="46.16788" lon="-1.01876">
        <ele>37.8</ele>
        <time>2015-11-23T08:53:04Z</time>
      </trkpt>
      <trkpt lat="46.1679" lon="-1.01888">
        <ele>37.6</ele>
        <time>2015-11-23T08:53:11Z</time>
      </trkpt>
      <trkpt lat="46.16791" lon="-1.01915">
        <ele>37.5</ele>
        <time>2015-11-23T08:53:26Z</time>
      </trkpt>
      <trkpt lat="46.16787" lon="-1.01941">
        <ele>37.7</ele>
        <time>2015-11-23T08:53:41Z</time>
      </trkpt>
      <trkpt lat="46.16787" lon="-1.01942">
        <ele>37.7</ele>
        <time>2015-11-23T08:53:42Z</time>
      </trkpt>
      <trkpt lat="46.16786" lon="-1.01951">
        <ele>37.7</ele>
        <time>2015-11-23T08:53:47Z</time>
      </trkpt>
      <trkpt lat="46.16784" lon="-1.01961">
        <ele>37.8</ele>
        <time>2015-11-23T08:53:53Z</time>
      </trkpt>
      <trkpt lat="46.16782" lon="-1.01976">
        <ele>37.9</ele>
        <time>2015-11-23T08:54:01Z</time>
      </trkpt>
      <trkpt lat="46.1678" lon="-1.02004">
        <ele>37.9</ele>
        <time>2015-11-23T08:54:15Z</time>
      </trkpt>
      <trkpt lat="46.16779" lon="-1.02017">
        <ele>38</ele>
        <time>2015-11-23T08:54:22Z</time>
      </trkpt>
      <trkpt lat="46.16777" lon="-1.02026">
        <ele>38</ele>
        <time>2015-11-23T08:54:27Z</time>
      </trkpt>
      <trkpt lat="46.1677" lon="-1.0205">
        <ele>38</ele>
        <time>2015-11-23T08:54:42Z</time>
      </trkpt>
      <trkpt lat="46.16766" lon="-1.02075">
        <ele>38</ele>
        <time>2015-11-23T08:54:56Z</time>
      </trkpt>
      <trkpt lat="46.16766" lon="-1.02101">
        <ele>38</ele>
        <time>2015-11-23T08:55:07Z</time>
      </trkpt>
      <trkpt lat="46.16762" lon="-1.02127">
        <ele>38</ele>
        <time>2015-11-23T08:55:23Z</time>
      </trkpt>
      <trkpt lat="46.16763" lon="-1.02141">
        <ele>38</ele>
        <time>2015-11-23T08:55:31Z</time>
      </trkpt>
      <trkpt lat="46.16761" lon="-1.02168">
        <ele>37.6</ele>
        <time>2015-11-23T08:55:47Z</time>
      </trkpt>
      <trkpt lat="46.16757" lon="-1.02195">
        <ele>37.7</ele>
        <time>2015-11-23T08:56:02Z</time>
      </trkpt>
      <trkpt lat="46.16758" lon="-1.02222">
        <ele>37.7</ele>
        <time>2015-11-23T08:56:16Z</time>
      </trkpt>
      <trkpt lat="46.16764" lon="-1.02246">
        <ele>37.5</ele>
        <time>2015-11-23T08:56:29Z</time>
      </trkpt>
      <trkpt lat="46.16772" lon="-1.02269">
        <ele>37.2</ele>
        <time>2015-11-23T08:56:42Z</time>
      </trkpt>
      <trkpt lat="46.16781" lon="-1.02292">
        <ele>37</ele>
        <time>2015-11-23T08:56:56Z</time>
      </trkpt>
      <trkpt lat="46.16781" lon="-1.02293">
        <ele>37</ele>
        <time>2015-11-23T08:56:57Z</time>
      </trkpt>
      <trkpt lat="46.16783" lon="-1.02304">
        <ele>37</ele>
        <time>2015-11-23T08:57:04Z</time>
      </trkpt>
      <trkpt lat="46.16784" lon="-1.02311">
        <ele>37</ele>
        <time>2015-11-23T08:57:08Z</time>
      </trkpt>
      <trkpt lat="46.16781" lon="-1.02315">
        <ele>37</ele>
        <time>2015-11-23T08:57:12Z</time>
      </trkpt>
      <trkpt lat="46.16766" lon="-1.02329">
        <ele>37.4</ele>
        <time>2015-11-23T08:57:27Z</time>
      </trkpt>
      <trkpt lat="46.1675" lon="-1.02342">
        <ele>37.7</ele>
        <time>2015-11-23T08:57:40Z</time>
      </trkpt>
      <trkpt lat="46.16737" lon="-1.02359">
        <ele>37.5</ele>
        <time>2015-11-23T08:57:54Z</time>
      </trkpt>
      <trkpt lat="46.16732" lon="-1.02384">
        <ele>37.1</ele>
        <time>2015-11-23T08:58:08Z</time>
      </trkpt>
      <trkpt lat="46.16738" lon="-1.02402">
        <ele>37</ele>
        <time>2015-11-23T08:58:18Z</time>
      </trkpt>
      <trkpt lat="46.16729" lon="-1.02426">
        <ele>37</ele>
        <time>2015-11-23T08:58:33Z</time>
      </trkpt>
      <trkpt lat="46.16731" lon="-1.02445">
        <ele>37</ele>
        <time>2015-11-23T08:58:46Z</time>
      </trkpt>
      <trkpt lat="46.16731" lon="-1.02468">
        <ele>37</ele>
        <time>2015-11-23T08:59:07Z</time>
      </trkpt>
      <trkpt lat="46.16716" lon="-1.02482">
        <ele>36.9</ele>
        <time>2015-11-23T08:59:21Z</time>
      </trkpt>
      <trkpt lat="46.1671" lon="-1.02487">
        <ele>36.8</ele>
        <time>2015-11-23T08:59:27Z</time>
      </trkpt>
      <trkpt lat="46.16713" lon="-1.02499">
        <ele>36.7</ele>
        <time>2015-11-23T08:59:32Z</time>
      </trkpt>
      <trkpt lat="46.16722" lon="-1.02524">
        <ele>36.1</ele>
        <time>2015-11-23T08:59:44Z</time>
      </trkpt>
      <trkpt lat="46.16729" lon="-1.02549">
        <ele>36</ele>
        <time>2015-11-23T08:59:58Z</time>
      </trkpt>
      <trkpt lat="46.16733" lon="-1.02557">
        <ele>35.9</ele>
        <time>2015-11-23T09:00:04Z</time>
      </trkpt>
      <trkpt lat="46.1673" lon="-1.02564">
        <ele>35.7</ele>
        <time>2015-11-23T09:00:09Z</time>
      </trkpt>
      <trkpt lat="46.16723" lon="-1.02582">
        <ele>35.1</ele>
        <time>2015-11-23T09:00:20Z</time>
      </trkpt>
      <trkpt lat="46.16728" lon="-1.02591">
        <ele>34.9</ele>
        <time>2015-11-23T09:00:25Z</time>
      </trkpt>
      <trkpt lat="46.16737" lon="-1.02614">
        <ele>34.4</ele>
        <time>2015-11-23T09:00:38Z</time>
      </trkpt>
      <trkpt lat="46.16735" lon="-1.0264">
        <ele>34</ele>
        <time>2015-11-23T09:00:52Z</time>
      </trkpt>
      <trkpt lat="46.16739" lon="-1.02666">
        <ele>34</ele>
        <time>2015-11-23T09:01:06Z</time>
      </trkpt>
      <trkpt lat="46.16748" lon="-1.02689">
        <ele>34</ele>
        <time>2015-11-23T09:01:19Z</time>
      </trkpt>
      <trkpt lat="46.1675" lon="-1.02698">
        <ele>33.9</ele>
        <time>2015-11-23T09:01:25Z</time>
      </trkpt>
      <trkpt lat="46.16743" lon="-1.02703">
        <ele>33.8</ele>
        <time>2015-11-23T09:01:31Z</time>
      </trkpt>
      <trkpt lat="46.16727" lon="-1.02717">
        <ele>33.9</ele>
        <time>2015-11-23T09:01:44Z</time>
      </trkpt>
      <trkpt lat="46.16713" lon="-1.02729">
        <ele>33.8</ele>
        <time>2015-11-23T09:01:55Z</time>
      </trkpt>
      <trkpt lat="46.16696" lon="-1.02742">
        <ele>33.3</ele>
        <time>2015-11-23T09:02:09Z</time>
      </trkpt>
      <trkpt lat="46.16681" lon="-1.02757">
        <ele>33</ele>
        <time>2015-11-23T09:02:22Z</time>
      </trkpt>
      <trkpt lat="46.16664" lon="-1.0277">
        <ele>33</ele>
        <time>2015-11-23T09:02:36Z</time>
      </trkpt>
      <trkpt lat="46.16648" lon="-1.02783">
        <ele>33</ele>
        <time>2015-11-23T09:02:50Z</time>
      </trkpt>
      <trkpt lat="46.1663" lon="-1.02791">
        <ele>32.9</ele>
        <time>2015-11-23T09:03:03Z</time>
      </trkpt>
      <trkpt lat="46.16613" lon="-1.02802">
        <ele>32.2</ele>
        <time>2015-11-23T09:03:16Z</time>
      </trkpt>
      <trkpt lat="46.16597" lon="-1.02815">
        <ele>32</ele>
        <time>2015-11-23T09:03:29Z</time>
      </trkpt>
      <trkpt lat="46.16581" lon="-1.02829">
        <ele>31.9</ele>
        <time>2015-11-23T09:03:43Z</time>
      </trkpt>
      <trkpt lat="46.16577" lon="-1.02837">
        <ele>31.8</ele>
        <time>2015-11-23T09:03:49Z</time>
      </trkpt>
      <trkpt lat="46.16562" lon="-1.0285">
        <ele>31.2</ele>
        <time>2015-11-23T09:04:04Z</time>
      </trkpt>
      <trkpt lat="46.16546" lon="-1.02862">
        <ele>30.7</ele>
        <time>2015-11-23T09:04:18Z</time>
      </trkpt>
      <trkpt lat="46.16529" lon="-1.02875">
        <ele>30.1</ele>
        <time>2015-11-23T09:04:33Z</time>
      </trkpt>
      <trkpt lat="46.16519" lon="-1.0289">
        <ele>30</ele>
        <time>2015-11-23T09:05:10Z</time>
      </trkpt>
      <trkpt lat="46.16521" lon="-1.029">
        <ele>29.7</ele>
        <time>2015-11-23T09:05:17Z</time>
      </trkpt>
      <trkpt lat="46.16526" lon="-1.02926">
        <ele>29.1</ele>
        <time>2015-11-23T09:05:37Z</time>
      </trkpt>
      <trkpt lat="46.16527" lon="-1.02931">
        <ele>29</ele>
        <time>2015-11-23T09:05:40Z</time>
      </trkpt>
      <trkpt lat="46.16528" lon="-1.02938">
        <ele>29</ele>
        <time>2015-11-23T09:05:44Z</time>
      </trkpt>
      <trkpt lat="46.16529" lon="-1.0294">
        <ele>29</ele>
        <time>2015-11-23T09:05:45Z</time>
      </trkpt>
      <trkpt lat="46.16536" lon="-1.0296">
        <ele>29.3</ele>
        <time>2015-11-23T09:05:59Z</time>
      </trkpt>
      <trkpt lat="46.16542" lon="-1.02985">
        <ele>29.3</ele>
        <time>2015-11-23T09:06:12Z</time>
      </trkpt>
      <trkpt lat="46.16544" lon="-1.0299">
        <ele>29.2</ele>
        <time>2015-11-23T09:06:15Z</time>
      </trkpt>
      <trkpt lat="46.1655" lon="-1.03015">
        <ele>29</ele>
        <time>2015-11-23T09:06:28Z</time>
      </trkpt>
      <trkpt lat="46.16559" lon="-1.03039">
        <ele>29</ele>
        <time>2015-11-23T09:06:42Z</time>
      </trkpt>
      <trkpt lat="46.16566" lon="-1.03063">
        <ele>29</ele>
        <time>2015-11-23T09:06:56Z</time>
      </trkpt>
      <trkpt lat="46.16574" lon="-1.03088">
        <ele>29</ele>
        <time>2015-11-23T09:07:10Z</time>
      </trkpt>
      <trkpt lat="46.16579" lon="-1.03114">
        <ele>29</ele>
        <time>2015-11-23T09:07:23Z</time>
      </trkpt>
      <trkpt lat="46.16585" lon="-1.03139">
        <ele>29</ele>
        <time>2015-11-23T09:07:37Z</time>
      </trkpt>
      <trkpt lat="46.16592" lon="-1.03163">
        <ele>29</ele>
        <time>2015-11-23T09:07:50Z</time>
      </trkpt>
      <trkpt lat="46.166" lon="-1.03187">
        <ele>28.7</ele>
        <time>2015-11-23T09:08:04Z</time>
      </trkpt>
      <trkpt lat="46.16607" lon="-1.03211">
        <ele>28.8</ele>
        <time>2015-11-23T09:08:19Z</time>
      </trkpt>
      <trkpt lat="46.16608" lon="-1.03213">
        <ele>28.9</ele>
        <time>2015-11-23T09:08:20Z</time>
      </trkpt>
      <trkpt lat="46.16615" lon="-1.03233">
        <ele>28.7</ele>
        <time>2015-11-23T09:08:32Z</time>
      </trkpt>
      <trkpt lat="46.16622" lon="-1.03258">
        <ele>28.4</ele>
        <time>2015-11-23T09:08:45Z</time>
      </trkpt>
      <trkpt lat="46.1663" lon="-1.03282">
        <ele>28.6</ele>
        <time>2015-11-23T09:08:59Z</time>
      </trkpt>
      <trkpt lat="46.16636" lon="-1.03308">
        <ele>28</ele>
        <time>2015-11-23T09:09:12Z</time>
      </trkpt>
      <trkpt lat="46.16643" lon="-1.03331">
        <ele>28</ele>
        <time>2015-11-23T09:09:26Z</time>
      </trkpt>
      <trkpt lat="46.16646" lon="-1.03333">
        <ele>28</ele>
        <time>2015-11-23T09:09:28Z</time>
      </trkpt>
      <trkpt lat="46.16662" lon="-1.03321">
        <ele>28.4</ele>
        <time>2015-11-23T09:09:41Z</time>
      </trkpt>
      <trkpt lat="46.16677" lon="-1.03308">
        <ele>29</ele>
        <time>2015-11-23T09:09:55Z</time>
      </trkpt>
      <trkpt lat="46.16693" lon="-1.03294">
        <ele>29</ele>
        <time>2015-11-23T09:10:08Z</time>
      </trkpt>
      <trkpt lat="46.16709" lon="-1.03281">
        <ele>29</ele>
        <time>2015-11-23T09:10:24Z</time>
      </trkpt>
      <trkpt lat="46.16725" lon="-1.03266">
        <ele>29.5</ele>
        <time>2015-11-23T09:10:38Z</time>
      </trkpt>
      <trkpt lat="46.16742" lon="-1.03252">
        <ele>30</ele>
        <time>2015-11-23T09:10:52Z</time>
      </trkpt>
      <trkpt lat="46.16757" lon="-1.03236">
        <ele>30</ele>
        <time>2015-11-23T09:11:07Z</time>
      </trkpt>
      <trkpt lat="46.16773" lon="-1.03222">
        <ele>30</ele>
        <time>2015-11-23T09:11:20Z</time>
      </trkpt>
      <trkpt lat="46.1679" lon="-1.03209">
        <ele>30.7</ele>
        <time>2015-11-23T09:11:36Z</time>
      </trkpt>
      <trkpt lat="46.16805" lon="-1.03194">
        <ele>31</ele>
        <time>2015-11-23T09:11:51Z</time>
      </trkpt>
      <trkpt lat="46.16822" lon="-1.0318">
        <ele>31</ele>
        <time>2015-11-23T09:12:06Z</time>
      </trkpt>
      <trkpt lat="46.16839" lon="-1.03168">
        <ele>31.2</ele>
        <time>2015-11-23T09:12:21Z</time>
      </trkpt>
      <trkpt lat="46.16857" lon="-1.03157">
        <ele>31.9</ele>
        <time>2015-11-23T09:12:36Z</time>
      </trkpt>
      <trkpt lat="46.16872" lon="-1.03143">
        <ele>32</ele>
        <time>2015-11-23T09:12:49Z</time>
      </trkpt>
      <trkpt lat="46.16888" lon="-1.03127">
        <ele>32.4</ele>
        <time>2015-11-23T09:13:02Z</time>
      </trkpt>
      <trkpt lat="46.16902" lon="-1.0311">
        <ele>33</ele>
        <time>2015-11-23T09:13:17Z</time>
      </trkpt>
      <trkpt lat="46.16917" lon="-1.03094">
        <ele>33</ele>
        <time>2015-11-23T09:13:31Z</time>
      </trkpt>
      <trkpt lat="46.16932" lon="-1.03078">
        <ele>33</ele>
        <time>2015-11-23T09:13:46Z</time>
      </trkpt>
      <trkpt lat="46.16936" lon="-1.03076">
        <ele>33</ele>
        <time>2015-11-23T09:13:50Z</time>
      </trkpt>
      <trkpt lat="46.1694" lon="-1.0308">
        <ele>33</ele>
        <time>2015-11-23T09:13:57Z</time>
      </trkpt>
      <trkpt lat="46.16946" lon="-1.03087">
        <ele>32.8</ele>
        <time>2015-11-23T09:14:04Z</time>
      </trkpt>
      <trkpt lat="46.16956" lon="-1.03109">
        <ele>32</ele>
        <time>2015-11-23T09:14:19Z</time>
      </trkpt>
      <trkpt lat="46.16966" lon="-1.03133">
        <ele>32</ele>
        <time>2015-11-23T09:14:34Z</time>
      </trkpt>
      <trkpt lat="46.16975" lon="-1.03156">
        <ele>32</ele>
        <time>2015-11-23T09:14:48Z</time>
      </trkpt>
      <trkpt lat="46.16986" lon="-1.03178">
        <ele>31.8</ele>
        <time>2015-11-23T09:15:02Z</time>
      </trkpt>
      <trkpt lat="46.16993" lon="-1.03203">
        <ele>31.2</ele>
        <time>2015-11-23T09:15:16Z</time>
      </trkpt>
      <trkpt lat="46.17001" lon="-1.03227">
        <ele>31</ele>
        <time>2015-11-23T09:15:29Z</time>
      </trkpt>
      <trkpt lat="46.1701" lon="-1.03251">
        <ele>31</ele>
        <time>2015-11-23T09:15:43Z</time>
      </trkpt>
      <trkpt lat="46.17019" lon="-1.03275">
        <ele>30.4</ele>
        <time>2015-11-23T09:15:57Z</time>
      </trkpt>
      <trkpt lat="46.17028" lon="-1.03297">
        <ele>30</ele>
        <time>2015-11-23T09:16:10Z</time>
      </trkpt>
      <trkpt lat="46.17037" lon="-1.03321">
        <ele>29.8</ele>
        <time>2015-11-23T09:16:24Z</time>
      </trkpt>
      <trkpt lat="46.17046" lon="-1.03346">
        <ele>29.2</ele>
        <time>2015-11-23T09:16:38Z</time>
      </trkpt>
      <trkpt lat="46.17056" lon="-1.03369">
        <ele>28.7</ele>
        <time>2015-11-23T09:16:52Z</time>
      </trkpt>
      <trkpt lat="46.17065" lon="-1.03393">
        <ele>28</ele>
        <time>2015-11-23T09:17:07Z</time>
      </trkpt>
      <trkpt lat="46.17071" lon="-1.03409">
        <ele>28</ele>
        <time>2015-11-23T09:17:17Z</time>
      </trkpt>
      <trkpt lat="46.17075" lon="-1.0342">
        <ele>27.9</ele>
        <time>2015-11-23T09:17:24Z</time>
      </trkpt>
      <trkpt lat="46.17084" lon="-1.03444">
        <ele>27</ele>
        <time>2015-11-23T09:17:39Z</time>
      </trkpt>
      <trkpt lat="46.17093" lon="-1.03468">
        <ele>27</ele>
        <time>2015-11-23T09:17:54Z</time>
      </trkpt>
      <trkpt lat="46.17102" lon="-1.03491">
        <ele>26.5</ele>
        <time>2015-11-23T09:18:09Z</time>
      </trkpt>
      <trkpt lat="46.17112" lon="-1.03515">
        <ele>26</ele>
        <time>2015-11-23T09:18:23Z</time>
      </trkpt>
      <trkpt lat="46.17121" lon="-1.03538">
        <ele>25.9</ele>
        <time>2015-11-23T09:18:37Z</time>
      </trkpt>
      <trkpt lat="46.1713" lon="-1.03561">
        <ele>25.3</ele>
        <time>2015-11-23T09:18:50Z</time>
      </trkpt>
      <trkpt lat="46.1714" lon="-1.03585">
        <ele>25</ele>
        <time>2015-11-23T09:19:05Z</time>
      </trkpt>
      <trkpt lat="46.1715" lon="-1.03608">
        <ele>25</ele>
        <time>2015-11-23T09:19:20Z</time>
      </trkpt>
      <trkpt lat="46.17159" lon="-1.03632">
        <ele>25</ele>
        <time>2015-11-23T09:19:35Z</time>
      </trkpt>
      <trkpt lat="46.17167" lon="-1.03654">
        <ele>25</ele>
        <time>2015-11-23T09:19:49Z</time>
      </trkpt>
      <trkpt lat="46.17179" lon="-1.03674">
        <ele>25</ele>
        <time>2015-11-23T09:20:05Z</time>
      </trkpt>
      <trkpt lat="46.17197" lon="-1.03682">
        <ele>25</ele>
        <time>2015-11-23T09:20:20Z</time>
      </trkpt>
      <trkpt lat="46.17215" lon="-1.03691">
        <ele>25</ele>
        <time>2015-11-23T09:20:36Z</time>
      </trkpt>
      <trkpt lat="46.17232" lon="-1.037">
        <ele>24.9</ele>
        <time>2015-11-23T09:20:50Z</time>
      </trkpt>
      <trkpt lat="46.17247" lon="-1.03714">
        <ele>24.9</ele>
        <time>2015-11-23T09:21:03Z</time>
      </trkpt>
      <trkpt lat="46.17263" lon="-1.03729">
        <ele>25</ele>
        <time>2015-11-23T09:21:17Z</time>
      </trkpt>
      <trkpt lat="46.17276" lon="-1.03747">
        <ele>25</ele>
        <time>2015-11-23T09:21:31Z</time>
      </trkpt>
      <trkpt lat="46.17294" lon="-1.03747">
        <ele>25</ele>
        <time>2015-11-23T09:21:45Z</time>
      </trkpt>
      <trkpt lat="46.17313" lon="-1.0374">
        <ele>24.8</ele>
        <time>2015-11-23T09:22:00Z</time>
      </trkpt>
      <trkpt lat="46.17331" lon="-1.03734">
        <ele>24.6</ele>
        <time>2015-11-23T09:22:15Z</time>
      </trkpt>
      <trkpt lat="46.17332" lon="-1.03734">
        <ele>24.6</ele>
        <time>2015-11-23T09:22:16Z</time>
      </trkpt>
      <trkpt lat="46.17336" lon="-1.03735">
        <ele>24.5</ele>
        <time>2015-11-23T09:22:20Z</time>
      </trkpt>
      <trkpt lat="46.17354" lon="-1.03731">
        <ele>24.2</ele>
        <time>2015-11-23T09:22:34Z</time>
      </trkpt>
      <trkpt lat="46.17373" lon="-1.03732">
        <ele>24</ele>
        <time>2015-11-23T09:22:48Z</time>
      </trkpt>
      <trkpt lat="46.17392" lon="-1.03736">
        <ele>24</ele>
        <time>2015-11-23T09:23:01Z</time>
      </trkpt>
      <trkpt lat="46.17411" lon="-1.03738">
        <ele>24</ele>
        <time>2015-11-23T09:23:15Z</time>
      </trkpt>
      <trkpt lat="46.1742" lon="-1.03736">
        <ele>23.9</ele>
        <time>2015-11-23T09:23:22Z</time>
      </trkpt>
      <trkpt lat="46.17438" lon="-1.03732">
        <ele>23.7</ele>
        <time>2015-11-23T09:23:37Z</time>
      </trkpt>
      <trkpt lat="46.17457" lon="-1.03728">
        <ele>23.5</ele>
        <time>2015-11-23T09:23:52Z</time>
      </trkpt>
      <trkpt lat="46.1747" lon="-1.03724">
        <ele>23.1</ele>
        <time>2015-11-23T09:24:05Z</time>
      </trkpt>
      <trkpt lat="46.17465" lon="-1.03724">
        <ele>23.2</ele>
        <time>2015-11-23T09:25:46Z</time>
      </trkpt>
      <trkpt lat="46.17466" lon="-1.03722">
        <ele>23.2</ele>
        <time>2015-11-23T09:27:07Z</time>
      </trkpt>
      <trkpt lat="46.17483" lon="-1.03725">
        <ele>23</ele>
        <time>2015-11-23T09:27:31Z</time>
      </trkpt>
      <trkpt lat="46.17483" lon="-1.03726">
        <ele>23</ele>
        <time>2015-11-23T09:27:32Z</time>
      </trkpt>
      <trkpt lat="46.17491" lon="-1.03745">
        <ele>23</ele>
        <time>2015-11-23T09:27:45Z</time>
      </trkpt>
      <trkpt lat="46.17492" lon="-1.03746">
        <ele>23</ele>
        <time>2015-11-23T09:27:47Z</time>
      </trkpt>
      <trkpt lat="46.17501" lon="-1.03769">
        <ele>23</ele>
        <time>2015-11-23T09:28:03Z</time>
      </trkpt>
      <trkpt lat="46.17502" lon="-1.03773">
        <ele>23</ele>
        <time>2015-11-23T09:28:06Z</time>
      </trkpt>
      <trkpt lat="46.17512" lon="-1.03796">
        <ele>23</ele>
        <time>2015-11-23T09:28:21Z</time>
      </trkpt>
      <trkpt lat="46.17515" lon="-1.03804">
        <ele>23</ele>
        <time>2015-11-23T09:28:26Z</time>
      </trkpt>
      <trkpt lat="46.1752" lon="-1.03825">
        <ele>22.8</ele>
        <time>2015-11-23T09:28:38Z</time>
      </trkpt>
      <trkpt lat="46.1753" lon="-1.03848">
        <ele>22.4</ele>
        <time>2015-11-23T09:28:52Z</time>
      </trkpt>
      <trkpt lat="46.17538" lon="-1.03872">
        <ele>22</ele>
        <time>2015-11-23T09:29:06Z</time>
      </trkpt>
      <trkpt lat="46.17544" lon="-1.03887">
        <ele>22</ele>
        <time>2015-11-23T09:29:16Z</time>
      </trkpt>
      <trkpt lat="46.17548" lon="-1.03897">
        <ele>21.7</ele>
        <time>2015-11-23T09:29:22Z</time>
      </trkpt>
      <trkpt lat="46.1755" lon="-1.03899">
        <ele>21.6</ele>
        <time>2015-11-23T09:29:24Z</time>
      </trkpt>
      <trkpt lat="46.17556" lon="-1.0392">
        <ele>20.9</ele>
        <time>2015-11-23T09:29:36Z</time>
      </trkpt>
      <trkpt lat="46.17561" lon="-1.03946">
        <ele>20.2</ele>
        <time>2015-11-23T09:29:50Z</time>
      </trkpt>
      <trkpt lat="46.17566" lon="-1.03971">
        <ele>20</ele>
        <time>2015-11-23T09:30:03Z</time>
      </trkpt>
      <trkpt lat="46.17571" lon="-1.03997">
        <ele>20</ele>
        <time>2015-11-23T09:30:16Z</time>
      </trkpt>
      <trkpt lat="46.17576" lon="-1.04023">
        <ele>20</ele>
        <time>2015-11-23T09:30:29Z</time>
      </trkpt>
      <trkpt lat="46.17582" lon="-1.04048">
        <ele>20</ele>
        <time>2015-11-23T09:30:42Z</time>
      </trkpt>
      <trkpt lat="46.17587" lon="-1.04073">
        <ele>20</ele>
        <time>2015-11-23T09:30:56Z</time>
      </trkpt>
      <trkpt lat="46.17593" lon="-1.04098">
        <ele>20.3</ele>
        <time>2015-11-23T09:31:10Z</time>
      </trkpt>
      <trkpt lat="46.176" lon="-1.04123">
        <ele>20.4</ele>
        <time>2015-11-23T09:31:24Z</time>
      </trkpt>
      <trkpt lat="46.17609" lon="-1.04146">
        <ele>20.1</ele>
        <time>2015-11-23T09:31:37Z</time>
      </trkpt>
      <trkpt lat="46.17615" lon="-1.04171">
        <ele>20</ele>
        <time>2015-11-23T09:31:50Z</time>
      </trkpt>
      <trkpt lat="46.17623" lon="-1.04196">
        <ele>20</ele>
        <time>2015-11-23T09:32:04Z</time>
      </trkpt>
      <trkpt lat="46.17633" lon="-1.04219">
        <ele>20.2</ele>
        <time>2015-11-23T09:32:19Z</time>
      </trkpt>
      <trkpt lat="46.1764" lon="-1.04243">
        <ele>20</ele>
        <time>2015-11-23T09:32:33Z</time>
      </trkpt>
      <trkpt lat="46.17647" lon="-1.04268">
        <ele>20</ele>
        <time>2015-11-23T09:32:46Z</time>
      </trkpt>
      <trkpt lat="46.17655" lon="-1.04293">
        <ele>20.2</ele>
        <time>2015-11-23T09:33:01Z</time>
      </trkpt>
      <trkpt lat="46.17663" lon="-1.04318">
        <ele>20.1</ele>
        <time>2015-11-23T09:33:15Z</time>
      </trkpt>
      <trkpt lat="46.17671" lon="-1.04342">
        <ele>19.9</ele>
        <time>2015-11-23T09:33:29Z</time>
      </trkpt>
      <trkpt lat="46.17679" lon="-1.04366">
        <ele>20</ele>
        <time>2015-11-23T09:33:43Z</time>
      </trkpt>
      <trkpt lat="46.17683" lon="-1.04371">
        <ele>20</ele>
        <time>2015-11-23T09:33:49Z</time>
      </trkpt>
      <trkpt lat="46.17689" lon="-1.04367">
        <ele>20</ele>
        <time>2015-11-23T09:33:54Z</time>
      </trkpt>
      <trkpt lat="46.17704" lon="-1.04353">
        <ele>19.5</ele>
        <time>2015-11-23T09:34:08Z</time>
      </trkpt>
      <trkpt lat="46.17722" lon="-1.04343">
        <ele>19</ele>
        <time>2015-11-23T09:34:23Z</time>
      </trkpt>
      <trkpt lat="46.17739" lon="-1.04332">
        <ele>19</ele>
        <time>2015-11-23T09:34:38Z</time>
      </trkpt>
      <trkpt lat="46.17756" lon="-1.04323">
        <ele>18.9</ele>
        <time>2015-11-23T09:34:52Z</time>
      </trkpt>
      <trkpt lat="46.17774" lon="-1.04313">
        <ele>18.4</ele>
        <time>2015-11-23T09:35:06Z</time>
      </trkpt>
      <trkpt lat="46.17791" lon="-1.04304">
        <ele>18</ele>
        <time>2015-11-23T09:35:20Z</time>
      </trkpt>
      <trkpt lat="46.17809" lon="-1.04297">
        <ele>18</ele>
        <time>2015-11-23T09:35:35Z</time>
      </trkpt>
      <trkpt lat="46.17827" lon="-1.04294">
        <ele>18</ele>
        <time>2015-11-23T09:35:50Z</time>
      </trkpt>
      <trkpt lat="46.17846" lon="-1.04291">
        <ele>18</ele>
        <time>2015-11-23T09:36:08Z</time>
      </trkpt>
      <trkpt lat="46.17864" lon="-1.04288">
        <ele>18.1</ele>
        <time>2015-11-23T09:36:24Z</time>
      </trkpt>
      <trkpt lat="46.17865" lon="-1.04288">
        <ele>18.1</ele>
        <time>2015-11-23T09:36:25Z</time>
      </trkpt>
      <trkpt lat="46.17875" lon="-1.04286">
        <ele>18.4</ele>
        <time>2015-11-23T09:36:35Z</time>
      </trkpt>
      <trkpt lat="46.17894" lon="-1.0428">
        <ele>19.1</ele>
        <time>2015-11-23T09:36:50Z</time>
      </trkpt>
      <trkpt lat="46.17913" lon="-1.04276">
        <ele>19.9</ele>
        <time>2015-11-23T09:37:07Z</time>
      </trkpt>
      <trkpt lat="46.17931" lon="-1.04275">
        <ele>20.1</ele>
        <time>2015-11-23T09:37:21Z</time>
      </trkpt>
      <trkpt lat="46.1795" lon="-1.04272">
        <ele>20.4</ele>
        <time>2015-11-23T09:37:36Z</time>
      </trkpt>
      <trkpt lat="46.17969" lon="-1.04267">
        <ele>20.9</ele>
        <time>2015-11-23T09:37:51Z</time>
      </trkpt>
      <trkpt lat="46.17988" lon="-1.04267">
        <ele>21.2</ele>
        <time>2015-11-23T09:38:08Z</time>
      </trkpt>
      <trkpt lat="46.18006" lon="-1.04269">
        <ele>21.3</ele>
        <time>2015-11-23T09:38:24Z</time>
      </trkpt>
      <trkpt lat="46.18011" lon="-1.04271">
        <ele>21.3</ele>
        <time>2015-11-23T09:38:28Z</time>
      </trkpt>
      <trkpt lat="46.18029" lon="-1.04275">
        <ele>21.1</ele>
        <time>2015-11-23T09:38:45Z</time>
      </trkpt>
      <trkpt lat="46.18043" lon="-1.04277">
        <ele>21</ele>
        <time>2015-11-23T09:38:56Z</time>
      </trkpt>
      <trkpt lat="46.18047" lon="-1.04279">
        <ele>21</ele>
        <time>2015-11-23T09:39:00Z</time>
      </trkpt>
      <trkpt lat="46.18065" lon="-1.04284">
        <ele>20.8</ele>
        <time>2015-11-23T09:39:14Z</time>
      </trkpt>
      <trkpt lat="46.18084" lon="-1.04287">
        <ele>21</ele>
        <time>2015-11-23T09:39:29Z</time>
      </trkpt>
      <trkpt lat="46.18099" lon="-1.04287">
        <ele>21</ele>
        <time>2015-11-23T09:39:41Z</time>
      </trkpt>
      <trkpt lat="46.18104" lon="-1.04265">
        <ele>21.5</ele>
        <time>2015-11-23T09:39:54Z</time>
      </trkpt>
      <trkpt lat="46.18104" lon="-1.04261">
        <ele>21.6</ele>
        <time>2015-11-23T09:39:56Z</time>
      </trkpt>
      <trkpt lat="46.18106" lon="-1.04235">
        <ele>22</ele>
        <time>2015-11-23T09:40:10Z</time>
      </trkpt>
      <trkpt lat="46.18106" lon="-1.0423">
        <ele>22</ele>
        <time>2015-11-23T09:40:13Z</time>
      </trkpt>
      <trkpt lat="46.18107" lon="-1.04208">
        <ele>22.5</ele>
        <time>2015-11-23T09:40:24Z</time>
      </trkpt>
      <trkpt lat="46.18107" lon="-1.04201">
        <ele>22.7</ele>
        <time>2015-11-23T09:40:28Z</time>
      </trkpt>
      <trkpt lat="46.1811" lon="-1.04176">
        <ele>23</ele>
        <time>2015-11-23T09:40:43Z</time>
      </trkpt>
      <trkpt lat="46.18111" lon="-1.04174">
        <ele>23</ele>
        <time>2015-11-23T09:40:44Z</time>
      </trkpt>
      <trkpt lat="46.18115" lon="-1.04148">
        <ele>23.7</ele>
        <time>2015-11-23T09:40:59Z</time>
      </trkpt>
      <trkpt lat="46.18118" lon="-1.04122">
        <ele>24</ele>
        <time>2015-11-23T09:41:15Z</time>
      </trkpt>
      <trkpt lat="46.18119" lon="-1.04114">
        <ele>24</ele>
        <time>2015-11-23T09:41:20Z</time>
      </trkpt>
      <trkpt lat="46.18123" lon="-1.041">
        <ele>24.4</ele>
        <time>2015-11-23T09:41:29Z</time>
      </trkpt>
      <trkpt lat="46.18129" lon="-1.04076">
        <ele>25.1</ele>
        <time>2015-11-23T09:41:47Z</time>
      </trkpt>
      <trkpt lat="46.18135" lon="-1.04051">
        <ele>25.3</ele>
        <time>2015-11-23T09:42:02Z</time>
      </trkpt>
      <trkpt lat="46.18141" lon="-1.04026">
        <ele>26.1</ele>
        <time>2015-11-23T09:42:18Z</time>
      </trkpt>
      <trkpt lat="46.18149" lon="-1.04002">
        <ele>26.6</ele>
        <time>2015-11-23T09:42:34Z</time>
      </trkpt>
      <trkpt lat="46.18158" lon="-1.03979">
        <ele>26.8</ele>
        <time>2015-11-23T09:42:50Z</time>
      </trkpt>
      <trkpt lat="46.18172" lon="-1.0396">
        <ele>27.3</ele>
        <time>2015-11-23T09:43:06Z</time>
      </trkpt>
      <trkpt lat="46.18186" lon="-1.03943">
        <ele>27.4</ele>
        <time>2015-11-23T09:43:21Z</time>
      </trkpt>
      <trkpt lat="46.182" lon="-1.03925">
        <ele>27.8</ele>
        <time>2015-11-23T09:43:36Z</time>
      </trkpt>
      <trkpt lat="46.18215" lon="-1.0391">
        <ele>28.2</ele>
        <time>2015-11-23T09:43:51Z</time>
      </trkpt>
      <trkpt lat="46.18229" lon="-1.03894">
        <ele>28.9</ele>
        <time>2015-11-23T09:44:07Z</time>
      </trkpt>
      <trkpt lat="46.18242" lon="-1.03875">
        <ele>29</ele>
        <time>2015-11-23T09:44:23Z</time>
      </trkpt>
      <trkpt lat="46.18256" lon="-1.03856">
        <ele>29.4</ele>
        <time>2015-11-23T09:44:40Z</time>
      </trkpt>
      <trkpt lat="46.18268" lon="-1.03837">
        <ele>30</ele>
        <time>2015-11-23T09:44:58Z</time>
      </trkpt>
      <trkpt lat="46.18266" lon="-1.03834">
        <ele>30</ele>
        <time>2015-11-23T09:47:33Z</time>
      </trkpt>
      <trkpt lat="46.18273" lon="-1.03835">
        <ele>30</ele>
        <time>2015-11-23T09:48:41Z</time>
      </trkpt>
      <trkpt lat="46.18281" lon="-1.03856">
        <ele>30</ele>
        <time>2015-11-23T09:49:06Z</time>
      </trkpt>
      <trkpt lat="46.18284" lon="-1.03882">
        <ele>29.3</ele>
        <time>2015-11-23T09:49:22Z</time>
      </trkpt>
      <trkpt lat="46.18288" lon="-1.03907">
        <ele>29</ele>
        <time>2015-11-23T09:49:37Z</time>
      </trkpt>
      <trkpt lat="46.1829" lon="-1.03934">
        <ele>28.4</ele>
        <time>2015-11-23T09:49:52Z</time>
      </trkpt>
      <trkpt lat="46.18293" lon="-1.03961">
        <ele>28</ele>
        <time>2015-11-23T09:50:09Z</time>
      </trkpt>
      <trkpt lat="46.18295" lon="-1.03988">
        <ele>27.4</ele>
        <time>2015-11-23T09:50:25Z</time>
      </trkpt>
      <trkpt lat="46.18295" lon="-1.03993">
        <ele>27.2</ele>
        <time>2015-11-23T09:50:28Z</time>
      </trkpt>
      <trkpt lat="46.18297" lon="-1.0402">
        <ele>27</ele>
        <time>2015-11-23T09:50:41Z</time>
      </trkpt>
      <trkpt lat="46.18299" lon="-1.04046">
        <ele>26.3</ele>
        <time>2015-11-23T09:50:54Z</time>
      </trkpt>
      <trkpt lat="46.18299" lon="-1.04048">
        <ele>26.3</ele>
        <time>2015-11-23T09:50:55Z</time>
      </trkpt>
      <trkpt lat="46.18301" lon="-1.04062">
        <ele>26</ele>
        <time>2015-11-23T09:51:02Z</time>
      </trkpt>
      <trkpt lat="46.18303" lon="-1.04088">
        <ele>25.7</ele>
        <time>2015-11-23T09:51:15Z</time>
      </trkpt>
      <trkpt lat="46.18304" lon="-1.041">
        <ele>25.4</ele>
        <time>2015-11-23T09:51:21Z</time>
      </trkpt>
      <trkpt lat="46.18306" lon="-1.04126">
        <ele>25</ele>
        <time>2015-11-23T09:51:35Z</time>
      </trkpt>
      <trkpt lat="46.1831" lon="-1.04152">
        <ele>24.5</ele>
        <time>2015-11-23T09:51:48Z</time>
      </trkpt>
      <trkpt lat="46.18314" lon="-1.04178">
        <ele>24</ele>
        <time>2015-11-23T09:52:02Z</time>
      </trkpt>
      <trkpt lat="46.1832" lon="-1.04203">
        <ele>23.8</ele>
        <time>2015-11-23T09:52:16Z</time>
      </trkpt>
      <trkpt lat="46.18324" lon="-1.0423">
        <ele>23.2</ele>
        <time>2015-11-23T09:52:29Z</time>
      </trkpt>
      <trkpt lat="46.18329" lon="-1.04256">
        <ele>23</ele>
        <time>2015-11-23T09:52:42Z</time>
      </trkpt>
      <trkpt lat="46.18338" lon="-1.04279">
        <ele>22.8</ele>
        <time>2015-11-23T09:52:55Z</time>
      </trkpt>
      <trkpt lat="46.18349" lon="-1.04301">
        <ele>22.1</ele>
        <time>2015-11-23T09:53:09Z</time>
      </trkpt>
      <trkpt lat="46.1836" lon="-1.04322">
        <ele>21.4</ele>
        <time>2015-11-23T09:53:23Z</time>
      </trkpt>
      <trkpt lat="46.18372" lon="-1.04344">
        <ele>20.8</ele>
        <time>2015-11-23T09:53:37Z</time>
      </trkpt>
      <trkpt lat="46.18386" lon="-1.04361">
        <ele>20.9</ele>
        <time>2015-11-23T09:53:51Z</time>
      </trkpt>
      <trkpt lat="46.184" lon="-1.04376">
        <ele>20.5</ele>
        <time>2015-11-23T09:54:04Z</time>
      </trkpt>
      <trkpt lat="46.18406" lon="-1.04383">
        <ele>20.2</ele>
        <time>2015-11-23T09:54:10Z</time>
      </trkpt>
      <trkpt lat="46.1842" lon="-1.04399">
        <ele>19.7</ele>
        <time>2015-11-23T09:54:24Z</time>
      </trkpt>
      <trkpt lat="46.18435" lon="-1.0441">
        <ele>19.4</ele>
        <time>2015-11-23T09:54:40Z</time>
      </trkpt>
      <trkpt lat="46.18452" lon="-1.04404">
        <ele>20.2</ele>
        <time>2015-11-23T09:54:58Z</time>
      </trkpt>
      <trkpt lat="46.18464" lon="-1.04388">
        <ele>21</ele>
        <time>2015-11-23T09:55:13Z</time>
      </trkpt>
      <trkpt lat="46.18477" lon="-1.04375">
        <ele>21.5</ele>
        <time>2015-11-23T09:55:26Z</time>
      </trkpt>
      <trkpt lat="46.18481" lon="-1.0437">
        <ele>21.6</ele>
        <time>2015-11-23T09:55:31Z</time>
      </trkpt>
      <trkpt lat="46.18495" lon="-1.04354">
        <ele>21.4</ele>
        <time>2015-11-23T09:55:44Z</time>
      </trkpt>
      <trkpt lat="46.18509" lon="-1.04336">
        <ele>22.2</ele>
        <time>2015-11-23T09:55:58Z</time>
      </trkpt>
      <trkpt lat="46.18524" lon="-1.04321">
        <ele>22.9</ele>
        <time>2015-11-23T09:56:12Z</time>
      </trkpt>
      <trkpt lat="46.18538" lon="-1.04304">
        <ele>23.4</ele>
        <time>2015-11-23T09:56:27Z</time>
      </trkpt>
      <trkpt lat="46.18554" lon="-1.04288">
        <ele>24</ele>
        <time>2015-11-23T09:56:42Z</time>
      </trkpt>
      <trkpt lat="46.18559" lon="-1.04282">
        <ele>24</ele>
        <time>2015-11-23T09:56:48Z</time>
      </trkpt>
      <trkpt lat="46.18573" lon="-1.04266">
        <ele>24.4</ele>
        <time>2015-11-23T09:57:03Z</time>
      </trkpt>
      <trkpt lat="46.18575" lon="-1.04263">
        <ele>24.5</ele>
        <time>2015-11-23T09:57:05Z</time>
      </trkpt>
      <trkpt lat="46.18585" lon="-1.04253">
        <ele>24.9</ele>
        <time>2015-11-23T09:57:16Z</time>
      </trkpt>
      <trkpt lat="46.186" lon="-1.04236">
        <ele>25.5</ele>
        <time>2015-11-23T09:57:31Z</time>
      </trkpt>
      <trkpt lat="46.18615" lon="-1.04219">
        <ele>26</ele>
        <time>2015-11-23T09:57:46Z</time>
      </trkpt>
      <trkpt lat="46.18622" lon="-1.04212">
        <ele>26</ele>
        <time>2015-11-23T09:57:54Z</time>
      </trkpt>
      <trkpt lat="46.18639" lon="-1.04199">
        <ele>26</ele>
        <time>2015-11-23T09:58:08Z</time>
      </trkpt>
      <trkpt lat="46.18655" lon="-1.04187">
        <ele>26.1</ele>
        <time>2015-11-23T09:58:24Z</time>
      </trkpt>
      <trkpt lat="46.18671" lon="-1.04175">
        <ele>26</ele>
        <time>2015-11-23T09:58:39Z</time>
      </trkpt>
      <trkpt lat="46.18688" lon="-1.0416">
        <ele>26.2</ele>
        <time>2015-11-23T09:58:56Z</time>
      </trkpt>
      <trkpt lat="46.18692" lon="-1.04156">
        <ele>26.4</ele>
        <time>2015-11-23T09:59:01Z</time>
      </trkpt>
      <trkpt lat="46.18709" lon="-1.04142">
        <ele>26.9</ele>
        <time>2015-11-23T09:59:16Z</time>
      </trkpt>
      <trkpt lat="46.18725" lon="-1.0413">
        <ele>27</ele>
        <time>2015-11-23T09:59:31Z</time>
      </trkpt>
      <trkpt lat="46.18741" lon="-1.04117">
        <ele>27</ele>
        <time>2015-11-23T09:59:46Z</time>
      </trkpt>
      <trkpt lat="46.18757" lon="-1.04104">
        <ele>27</ele>
        <time>2015-11-23T09:59:59Z</time>
      </trkpt>
      <trkpt lat="46.18773" lon="-1.0409">
        <ele>27</ele>
        <time>2015-11-23T10:00:14Z</time>
      </trkpt>
      <trkpt lat="46.1879" lon="-1.04079">
        <ele>26.6</ele>
        <time>2015-11-23T10:00:28Z</time>
      </trkpt>
      <trkpt lat="46.18807" lon="-1.04068">
        <ele>26.5</ele>
        <time>2015-11-23T10:00:41Z</time>
      </trkpt>
      <trkpt lat="46.18823" lon="-1.04056">
        <ele>26.4</ele>
        <time>2015-11-23T10:00:55Z</time>
      </trkpt>
      <trkpt lat="46.1884" lon="-1.04045">
        <ele>26</ele>
        <time>2015-11-23T10:01:09Z</time>
      </trkpt>
      <trkpt lat="46.18857" lon="-1.04034">
        <ele>26</ele>
        <time>2015-11-23T10:01:23Z</time>
      </trkpt>
      <trkpt lat="46.18873" lon="-1.04022">
        <ele>25.5</ele>
        <time>2015-11-23T10:01:36Z</time>
      </trkpt>
      <trkpt lat="46.18886" lon="-1.04016">
        <ele>25.1</ele>
        <time>2015-11-23T10:01:47Z</time>
      </trkpt>
      <trkpt lat="46.18902" lon="-1.04004">
        <ele>24.5</ele>
        <time>2015-11-23T10:02:01Z</time>
      </trkpt>
      <trkpt lat="46.1892" lon="-1.03993">
        <ele>23.9</ele>
        <time>2015-11-23T10:02:15Z</time>
      </trkpt>
      <trkpt lat="46.18937" lon="-1.03982">
        <ele>23.3</ele>
        <time>2015-11-23T10:02:29Z</time>
      </trkpt>
      <trkpt lat="46.18948" lon="-1.03975">
        <ele>23</ele>
        <time>2015-11-23T10:02:39Z</time>
      </trkpt>
      <trkpt lat="46.18966" lon="-1.03965">
        <ele>23</ele>
        <time>2015-11-23T10:02:53Z</time>
      </trkpt>
      <trkpt lat="46.18983" lon="-1.03953">
        <ele>22.6</ele>
        <time>2015-11-23T10:03:07Z</time>
      </trkpt>
      <trkpt lat="46.18999" lon="-1.03942">
        <ele>22</ele>
        <time>2015-11-23T10:03:21Z</time>
      </trkpt>
      <trkpt lat="46.19016" lon="-1.0393">
        <ele>21.7</ele>
        <time>2015-11-23T10:03:35Z</time>
      </trkpt>
      <trkpt lat="46.19033" lon="-1.03919">
        <ele>21.1</ele>
        <time>2015-11-23T10:03:50Z</time>
      </trkpt>
      <trkpt lat="46.1905" lon="-1.03908">
        <ele>20.8</ele>
        <time>2015-11-23T10:04:03Z</time>
      </trkpt>
      <trkpt lat="46.19067" lon="-1.03897">
        <ele>19.9</ele>
        <time>2015-11-23T10:04:17Z</time>
      </trkpt>
      <trkpt lat="46.19084" lon="-1.03886">
        <ele>19</ele>
        <time>2015-11-23T10:04:31Z</time>
      </trkpt>
      <trkpt lat="46.19101" lon="-1.03875">
        <ele>18.7</ele>
        <time>2015-11-23T10:04:44Z</time>
      </trkpt>
      <trkpt lat="46.19104" lon="-1.03872">
        <ele>18.5</ele>
        <time>2015-11-23T10:04:47Z</time>
      </trkpt>
      <trkpt lat="46.19121" lon="-1.03861">
        <ele>17.7</ele>
        <time>2015-11-23T10:05:00Z</time>
      </trkpt>
      <trkpt lat="46.19138" lon="-1.0385">
        <ele>17</ele>
        <time>2015-11-23T10:05:13Z</time>
      </trkpt>
      <trkpt lat="46.19154" lon="-1.0384">
        <ele>17</ele>
        <time>2015-11-23T10:05:25Z</time>
      </trkpt>
      <trkpt lat="46.19171" lon="-1.03826">
        <ele>17</ele>
        <time>2015-11-23T10:05:38Z</time>
      </trkpt>
      <trkpt lat="46.19186" lon="-1.03814">
        <ele>17.5</ele>
        <time>2015-11-23T10:05:51Z</time>
      </trkpt>
      <trkpt lat="46.19189" lon="-1.03811">
        <ele>17.7</ele>
        <time>2015-11-23T10:06:03Z</time>
      </trkpt>
      <trkpt lat="46.19205" lon="-1.03797">
        <ele>18.4</ele>
        <time>2015-11-23T10:06:16Z</time>
      </trkpt>
      <trkpt lat="46.19221" lon="-1.0378">
        <ele>18.9</ele>
        <time>2015-11-23T10:06:28Z</time>
      </trkpt>
      <trkpt lat="46.19236" lon="-1.03766">
        <ele>19.5</ele>
        <time>2015-11-23T10:06:40Z</time>
      </trkpt>
      <trkpt lat="46.19253" lon="-1.03753">
        <ele>20.1</ele>
        <time>2015-11-23T10:06:53Z</time>
      </trkpt>
      <trkpt lat="46.1927" lon="-1.03742">
        <ele>20.7</ele>
        <time>2015-11-23T10:07:07Z</time>
      </trkpt>
      <trkpt lat="46.19281" lon="-1.03733">
        <ele>21</ele>
        <time>2015-11-23T10:07:16Z</time>
      </trkpt>
      <trkpt lat="46.19295" lon="-1.03724">
        <ele>21</ele>
        <time>2015-11-23T10:07:29Z</time>
      </trkpt>
      <trkpt lat="46.19313" lon="-1.03713">
        <ele>21.3</ele>
        <time>2015-11-23T10:07:42Z</time>
      </trkpt>
      <trkpt lat="46.1933" lon="-1.03703">
        <ele>21.1</ele>
        <time>2015-11-23T10:07:54Z</time>
      </trkpt>
      <trkpt lat="46.19342" lon="-1.03695">
        <ele>21</ele>
        <time>2015-11-23T10:08:03Z</time>
      </trkpt>
      <trkpt lat="46.19359" lon="-1.03687">
        <ele>21</ele>
        <time>2015-11-23T10:08:16Z</time>
      </trkpt>
      <trkpt lat="46.19372" lon="-1.0368">
        <ele>21</ele>
        <time>2015-11-23T10:08:25Z</time>
      </trkpt>
      <trkpt lat="46.1939" lon="-1.03673">
        <ele>21</ele>
        <time>2015-11-23T10:08:37Z</time>
      </trkpt>
      <trkpt lat="46.19408" lon="-1.03663">
        <ele>21</ele>
        <time>2015-11-23T10:08:49Z</time>
      </trkpt>
      <trkpt lat="46.19425" lon="-1.03653">
        <ele>21.1</ele>
        <time>2015-11-23T10:09:02Z</time>
      </trkpt>
      <trkpt lat="46.19442" lon="-1.03641">
        <ele>21.8</ele>
        <time>2015-11-23T10:09:14Z</time>
      </trkpt>
      <trkpt lat="46.19456" lon="-1.03624">
        <ele>22.7</ele>
        <time>2015-11-23T10:09:26Z</time>
      </trkpt>
      <trkpt lat="46.19459" lon="-1.03616">
        <ele>22.9</ele>
        <time>2015-11-23T10:09:31Z</time>
      </trkpt>
      <trkpt lat="46.1946" lon="-1.03613">
        <ele>23</ele>
        <time>2015-11-23T10:10:31Z</time>
      </trkpt>
      <trkpt lat="46.19453" lon="-1.03587">
        <ele>23</ele>
        <time>2015-11-23T10:10:44Z</time>
      </trkpt>
      <trkpt lat="46.19445" lon="-1.03568">
        <ele>23</ele>
        <time>2015-11-23T10:10:56Z</time>
      </trkpt>
      <trkpt lat="46.19437" lon="-1.03543">
        <ele>23</ele>
        <time>2015-11-23T10:11:10Z</time>
      </trkpt>
      <trkpt lat="46.19434" lon="-1.03534">
        <ele>23</ele>
        <time>2015-11-23T10:11:15Z</time>
      </trkpt>
      <trkpt lat="46.19427" lon="-1.0351">
        <ele>23.7</ele>
        <time>2015-11-23T10:11:28Z</time>
      </trkpt>
      <trkpt lat="46.19419" lon="-1.03485">
        <ele>24</ele>
        <time>2015-11-23T10:11:41Z</time>
      </trkpt>
      <trkpt lat="46.19414" lon="-1.03472">
        <ele>23.9</ele>
        <time>2015-11-23T10:11:49Z</time>
      </trkpt>
      <trkpt lat="46.19405" lon="-1.03449">
        <ele>23.9</ele>
        <time>2015-11-23T10:12:12Z</time>
      </trkpt>
      <trkpt lat="46.19397" lon="-1.03424">
        <ele>24.5</ele>
        <time>2015-11-23T10:12:25Z</time>
      </trkpt>
      <trkpt lat="46.19388" lon="-1.03401">
        <ele>24.4</ele>
        <time>2015-11-23T10:12:39Z</time>
      </trkpt>
      <trkpt lat="46.19379" lon="-1.03378">
        <ele>24.4</ele>
        <time>2015-11-23T10:12:53Z</time>
      </trkpt>
      <trkpt lat="46.19372" lon="-1.03354">
        <ele>24.9</ele>
        <time>2015-11-23T10:13:07Z</time>
      </trkpt>
      <trkpt lat="46.19362" lon="-1.03331">
        <ele>25</ele>
        <time>2015-11-23T10:13:23Z</time>
      </trkpt>
      <trkpt lat="46.19356" lon="-1.03312">
        <ele>25.1</ele>
        <time>2015-11-23T10:13:34Z</time>
      </trkpt>
      <trkpt lat="46.19348" lon="-1.03287">
        <ele>25.5</ele>
        <time>2015-11-23T10:13:51Z</time>
      </trkpt>
      <trkpt lat="46.19338" lon="-1.03263">
        <ele>25.8</ele>
        <time>2015-11-23T10:14:05Z</time>
      </trkpt>
      <trkpt lat="46.19329" lon="-1.03239">
        <ele>26</ele>
        <time>2015-11-23T10:14:19Z</time>
      </trkpt>
      <trkpt lat="46.19318" lon="-1.03217">
        <ele>26.1</ele>
        <time>2015-11-23T10:14:33Z</time>
      </trkpt>
      <trkpt lat="46.19308" lon="-1.03194">
        <ele>26.9</ele>
        <time>2015-11-23T10:14:49Z</time>
      </trkpt>
      <trkpt lat="46.19299" lon="-1.03171">
        <ele>27</ele>
        <time>2015-11-23T10:15:03Z</time>
      </trkpt>
      <trkpt lat="46.19288" lon="-1.03148">
        <ele>27.4</ele>
        <time>2015-11-23T10:15:17Z</time>
      </trkpt>
      <trkpt lat="46.1928" lon="-1.03124">
        <ele>27.9</ele>
        <time>2015-11-23T10:15:33Z</time>
      </trkpt>
      <trkpt lat="46.1928" lon="-1.03123">
        <ele>27.9</ele>
        <time>2015-11-23T10:15:34Z</time>
      </trkpt>
      <trkpt lat="46.19276" lon="-1.03112">
        <ele>28</ele>
        <time>2015-11-23T10:15:40Z</time>
      </trkpt>
      <trkpt lat="46.19268" lon="-1.03088">
        <ele>28</ele>
        <time>2015-11-23T10:15:54Z</time>
      </trkpt>
      <trkpt lat="46.19261" lon="-1.03062">
        <ele>28.5</ele>
        <time>2015-11-23T10:16:09Z</time>
      </trkpt>
      <trkpt lat="46.19253" lon="-1.03038">
        <ele>28.9</ele>
        <time>2015-11-23T10:16:23Z</time>
      </trkpt>
      <trkpt lat="46.19246" lon="-1.03012">
        <ele>29</ele>
        <time>2015-11-23T10:16:37Z</time>
      </trkpt>
      <trkpt lat="46.19241" lon="-1.02999">
        <ele>29</ele>
        <time>2015-11-23T10:16:45Z</time>
      </trkpt>
      <trkpt lat="46.19238" lon="-1.02992">
        <ele>29.1</ele>
        <time>2015-11-23T10:16:50Z</time>
      </trkpt>
      <trkpt lat="46.19231" lon="-1.02968">
        <ele>29.7</ele>
        <time>2015-11-23T10:17:04Z</time>
      </trkpt>
      <trkpt lat="46.1923" lon="-1.02965">
        <ele>29.7</ele>
        <time>2015-11-23T10:17:07Z</time>
      </trkpt>
      <trkpt lat="46.19224" lon="-1.0294">
        <ele>29.9</ele>
        <time>2015-11-23T10:17:24Z</time>
      </trkpt>
      <trkpt lat="46.19218" lon="-1.02914">
        <ele>30</ele>
        <time>2015-11-23T10:17:40Z</time>
      </trkpt>
      <trkpt lat="46.1921" lon="-1.02889">
        <ele>30.4</ele>
        <time>2015-11-23T10:17:55Z</time>
      </trkpt>
      <trkpt lat="46.19201" lon="-1.02865">
        <ele>30.7</ele>
        <time>2015-11-23T10:18:10Z</time>
      </trkpt>
      <trkpt lat="46.19194" lon="-1.02842">
        <ele>31</ele>
        <time>2015-11-23T10:18:24Z</time>
      </trkpt>
      <trkpt lat="46.19192" lon="-1.02836">
        <ele>31</ele>
        <time>2015-11-23T10:18:29Z</time>
      </trkpt>
      <trkpt lat="46.19183" lon="-1.02811">
        <ele>30.5</ele>
        <time>2015-11-23T10:18:43Z</time>
      </trkpt>
      <trkpt lat="46.19174" lon="-1.02789">
        <ele>30.9</ele>
        <time>2015-11-23T10:18:56Z</time>
      </trkpt>
      <trkpt lat="46.19166" lon="-1.02765">
        <ele>31</ele>
        <time>2015-11-23T10:19:09Z</time>
      </trkpt>
      <trkpt lat="46.19156" lon="-1.02741">
        <ele>31.4</ele>
        <time>2015-11-23T10:19:22Z</time>
      </trkpt>
      <trkpt lat="46.19154" lon="-1.02735">
        <ele>31.5</ele>
        <time>2015-11-23T10:19:26Z</time>
      </trkpt>
      <trkpt lat="46.19152" lon="-1.02729">
        <ele>31.5</ele>
        <time>2015-11-23T10:19:30Z</time>
      </trkpt>
      <trkpt lat="46.19143" lon="-1.02705">
        <ele>31.9</ele>
        <time>2015-11-23T10:19:44Z</time>
      </trkpt>
      <trkpt lat="46.19136" lon="-1.02681">
        <ele>32</ele>
        <time>2015-11-23T10:19:57Z</time>
      </trkpt>
      <trkpt lat="46.19128" lon="-1.02656">
        <ele>32</ele>
        <time>2015-11-23T10:20:10Z</time>
      </trkpt>
      <trkpt lat="46.1912" lon="-1.02633">
        <ele>32</ele>
        <time>2015-11-23T10:20:23Z</time>
      </trkpt>
      <trkpt lat="46.1912" lon="-1.02632">
        <ele>32</ele>
        <time>2015-11-23T10:20:24Z</time>
      </trkpt>
      <trkpt lat="46.19115" lon="-1.02613">
        <ele>32</ele>
        <time>2015-11-23T10:21:10Z</time>
      </trkpt>
      <trkpt lat="46.19114" lon="-1.02612">
        <ele>32</ele>
        <time>2015-11-23T10:21:11Z</time>
      </trkpt>
      <trkpt lat="46.19113" lon="-1.02606">
        <ele>32</ele>
        <time>2015-11-23T10:21:15Z</time>
      </trkpt>
      <trkpt lat="46.19112" lon="-1.02603">
        <ele>32</ele>
        <time>2015-11-23T10:21:17Z</time>
      </trkpt>
      <trkpt lat="46.19111" lon="-1.02597">
        <ele>32</ele>
        <time>2015-11-23T10:21:21Z</time>
      </trkpt>
      <trkpt lat="46.19107" lon="-1.0257">
        <ele>32.2</ele>
        <time>2015-11-23T10:21:37Z</time>
      </trkpt>
      <trkpt lat="46.19102" lon="-1.02545">
        <ele>32.3</ele>
        <time>2015-11-23T10:21:54Z</time>
      </trkpt>
      <trkpt lat="46.19101" lon="-1.02534">
        <ele>32.4</ele>
        <time>2015-11-23T10:22:02Z</time>
      </trkpt>
      <trkpt lat="46.19098" lon="-1.02508">
        <ele>32.5</ele>
        <time>2015-11-23T10:22:18Z</time>
      </trkpt>
      <trkpt lat="46.19099" lon="-1.02506">
        <ele>32.5</ele>
        <time>2015-11-23T10:22:19Z</time>
      </trkpt>
      <trkpt lat="46.19097" lon="-1.0249">
        <ele>32.5</ele>
        <time>2015-11-23T10:22:28Z</time>
      </trkpt>
      <trkpt lat="46.19092" lon="-1.02463">
        <ele>32.4</ele>
        <time>2015-11-23T10:22:42Z</time>
      </trkpt>
      <trkpt lat="46.19091" lon="-1.02456">
        <ele>32.2</ele>
        <time>2015-11-23T10:22:46Z</time>
      </trkpt>
      <trkpt lat="46.1909" lon="-1.02447">
        <ele>31.9</ele>
        <time>2015-11-23T10:22:51Z</time>
      </trkpt>
      <trkpt lat="46.19081" lon="-1.02423">
        <ele>32.1</ele>
        <time>2015-11-23T10:23:05Z</time>
      </trkpt>
      <trkpt lat="46.19069" lon="-1.02401">
        <ele>31.9</ele>
        <time>2015-11-23T10:23:20Z</time>
      </trkpt>
      <trkpt lat="46.19057" lon="-1.0238">
        <ele>31.9</ele>
        <time>2015-11-23T10:23:34Z</time>
      </trkpt>
      <trkpt lat="46.19043" lon="-1.02364">
        <ele>32.5</ele>
        <time>2015-11-23T10:23:48Z</time>
      </trkpt>
      <trkpt lat="46.1903" lon="-1.02344">
        <ele>32.3</ele>
        <time>2015-11-23T10:24:03Z</time>
      </trkpt>
      <trkpt lat="46.1902" lon="-1.02321">
        <ele>32.2</ele>
        <time>2015-11-23T10:24:18Z</time>
      </trkpt>
      <trkpt lat="46.19009" lon="-1.02298">
        <ele>32</ele>
        <time>2015-11-23T10:24:33Z</time>
      </trkpt>
      <trkpt lat="46.19008" lon="-1.02297">
        <ele>32</ele>
        <time>2015-11-23T10:24:34Z</time>
      </trkpt>
      <trkpt lat="46.19" lon="-1.02273">
        <ele>32</ele>
        <time>2015-11-23T10:24:48Z</time>
      </trkpt>
      <trkpt lat="46.18991" lon="-1.02248">
        <ele>32.3</ele>
        <time>2015-11-23T10:25:02Z</time>
      </trkpt>
      <trkpt lat="46.18984" lon="-1.02223">
        <ele>32</ele>
        <time>2015-11-23T10:25:16Z</time>
      </trkpt>
      <trkpt lat="46.18981" lon="-1.0221">
        <ele>31.9</ele>
        <time>2015-11-23T10:25:24Z</time>
      </trkpt>
      <trkpt lat="46.1898" lon="-1.02205">
        <ele>31.8</ele>
        <time>2015-11-23T10:25:28Z</time>
      </trkpt>
      <trkpt lat="46.18972" lon="-1.02179">
        <ele>31.5</ele>
        <time>2015-11-23T10:25:43Z</time>
      </trkpt>
      <trkpt lat="46.18963" lon="-1.02155">
        <ele>31</ele>
        <time>2015-11-23T10:25:57Z</time>
      </trkpt>
      <trkpt lat="46.18957" lon="-1.02135">
        <ele>30.9</ele>
        <time>2015-11-23T10:26:09Z</time>
      </trkpt>
      <trkpt lat="46.18956" lon="-1.02131">
        <ele>30.7</ele>
        <time>2015-11-23T10:26:11Z</time>
      </trkpt>
      <trkpt lat="46.18954" lon="-1.02124">
        <ele>30.5</ele>
        <time>2015-11-23T10:26:15Z</time>
      </trkpt>
      <trkpt lat="46.18946" lon="-1.021">
        <ele>30</ele>
        <time>2015-11-23T10:26:29Z</time>
      </trkpt>
      <trkpt lat="46.18939" lon="-1.02076">
        <ele>29.6</ele>
        <time>2015-11-23T10:26:44Z</time>
      </trkpt>
      <trkpt lat="46.18937" lon="-1.02069">
        <ele>29.4</ele>
        <time>2015-11-23T10:26:48Z</time>
      </trkpt>
      <trkpt lat="46.18928" lon="-1.02045">
        <ele>28.6</ele>
        <time>2015-11-23T10:27:02Z</time>
      </trkpt>
      <trkpt lat="46.18919" lon="-1.02022">
        <ele>28</ele>
        <time>2015-11-23T10:27:17Z</time>
      </trkpt>
      <trkpt lat="46.18911" lon="-1.01998">
        <ele>27.9</ele>
        <time>2015-11-23T10:27:33Z</time>
      </trkpt>
      <trkpt lat="46.18907" lon="-1.01971">
        <ele>27.4</ele>
        <time>2015-11-23T10:27:50Z</time>
      </trkpt>
      <trkpt lat="46.18904" lon="-1.01963">
        <ele>27.5</ele>
        <time>2015-11-23T10:27:54Z</time>
      </trkpt>
      <trkpt lat="46.18904" lon="-1.01952">
        <ele>27.5</ele>
        <time>2015-11-23T10:28:01Z</time>
      </trkpt>
      <trkpt lat="46.18898" lon="-1.01929">
        <ele>27.7</ele>
        <time>2015-11-23T10:28:14Z</time>
      </trkpt>
      <trkpt lat="46.18898" lon="-1.01903">
        <ele>27.7</ele>
        <time>2015-11-23T10:28:27Z</time>
      </trkpt>
      <trkpt lat="46.18899" lon="-1.01876">
        <ele>27.6</ele>
        <time>2015-11-23T10:28:41Z</time>
      </trkpt>
      <trkpt lat="46.18903" lon="-1.01851">
        <ele>27.9</ele>
        <time>2015-11-23T10:28:56Z</time>
      </trkpt>
      <trkpt lat="46.18906" lon="-1.01825">
        <ele>28.4</ele>
        <time>2015-11-23T10:29:09Z</time>
      </trkpt>
      <trkpt lat="46.18902" lon="-1.01803">
        <ele>28.5</ele>
        <time>2015-11-23T10:29:22Z</time>
      </trkpt>
      <trkpt lat="46.189" lon="-1.01795">
        <ele>28.6</ele>
        <time>2015-11-23T10:29:27Z</time>
      </trkpt>
      <trkpt lat="46.18892" lon="-1.01773">
        <ele>29.1</ele>
        <time>2015-11-23T10:29:42Z</time>
      </trkpt>
      <trkpt lat="46.18891" lon="-1.01772">
        <ele>29.1</ele>
        <time>2015-11-23T10:29:43Z</time>
      </trkpt>
      <trkpt lat="46.18883" lon="-1.01748">
        <ele>30</ele>
        <time>2015-11-23T10:29:58Z</time>
      </trkpt>
      <trkpt lat="46.18878" lon="-1.01722">
        <ele>30.4</ele>
        <time>2015-11-23T10:30:12Z</time>
      </trkpt>
      <trkpt lat="46.18873" lon="-1.01697">
        <ele>30.6</ele>
        <time>2015-11-23T10:30:26Z</time>
      </trkpt>
      <trkpt lat="46.18868" lon="-1.01672">
        <ele>30.7</ele>
        <time>2015-11-23T10:30:41Z</time>
      </trkpt>
      <trkpt lat="46.18865" lon="-1.01658">
        <ele>30.9</ele>
        <time>2015-11-23T10:30:49Z</time>
      </trkpt>
      <trkpt lat="46.18863" lon="-1.01651">
        <ele>30.9</ele>
        <time>2015-11-23T10:30:53Z</time>
      </trkpt>
      <trkpt lat="46.18859" lon="-1.01626">
        <ele>31</ele>
        <time>2015-11-23T10:31:07Z</time>
      </trkpt>
      <trkpt lat="46.18854" lon="-1.01601">
        <ele>31.2</ele>
        <time>2015-11-23T10:31:21Z</time>
      </trkpt>
      <trkpt lat="46.1885" lon="-1.01574">
        <ele>31.4</ele>
        <time>2015-11-23T10:31:36Z</time>
      </trkpt>
      <trkpt lat="46.18846" lon="-1.01548">
        <ele>31.5</ele>
        <time>2015-11-23T10:31:51Z</time>
      </trkpt>
      <trkpt lat="46.18842" lon="-1.01534">
        <ele>31.7</ele>
        <time>2015-11-23T10:32:00Z</time>
      </trkpt>
      <trkpt lat="46.18841" lon="-1.01528">
        <ele>31.7</ele>
        <time>2015-11-23T10:32:04Z</time>
      </trkpt>
      <trkpt lat="46.18835" lon="-1.01503">
        <ele>31.9</ele>
        <time>2015-11-23T10:32:18Z</time>
      </trkpt>
      <trkpt lat="46.18831" lon="-1.01476">
        <ele>32.1</ele>
        <time>2015-11-23T10:32:32Z</time>
      </trkpt>
      <trkpt lat="46.18831" lon="-1.01474">
        <ele>32.1</ele>
        <time>2015-11-23T10:32:34Z</time>
      </trkpt>
      <trkpt lat="46.18824" lon="-1.0145">
        <ele>32.3</ele>
        <time>2015-11-23T10:32:49Z</time>
      </trkpt>
      <trkpt lat="46.18815" lon="-1.01427">
        <ele>32</ele>
        <time>2015-11-23T10:33:03Z</time>
      </trkpt>
      <trkpt lat="46.1881" lon="-1.01411">
        <ele>31.8</ele>
        <time>2015-11-23T10:33:12Z</time>
      </trkpt>
      <trkpt lat="46.18803" lon="-1.0139">
        <ele>32.1</ele>
        <time>2015-11-23T10:33:27Z</time>
      </trkpt>
      <trkpt lat="46.18801" lon="-1.01388">
        <ele>32.2</ele>
        <time>2015-11-23T10:33:34Z</time>
      </trkpt>
      <trkpt lat="46.18792" lon="-1.01365">
        <ele>32.5</ele>
        <time>2015-11-23T10:33:47Z</time>
      </trkpt>
      <trkpt lat="46.18782" lon="-1.01343">
        <ele>32.8</ele>
        <time>2015-11-23T10:34:00Z</time>
      </trkpt>
      <trkpt lat="46.18774" lon="-1.01325">
        <ele>33</ele>
        <time>2015-11-23T10:34:11Z</time>
      </trkpt>
      <trkpt lat="46.18763" lon="-1.01304">
        <ele>33</ele>
        <time>2015-11-23T10:34:27Z</time>
      </trkpt>
      <trkpt lat="46.1875" lon="-1.01284">
        <ele>33</ele>
        <time>2015-11-23T10:34:42Z</time>
      </trkpt>
      <trkpt lat="46.18741" lon="-1.01266">
        <ele>33.2</ele>
        <time>2015-11-23T10:34:54Z</time>
      </trkpt>
      <trkpt lat="46.18729" lon="-1.01246">
        <ele>33.1</ele>
        <time>2015-11-23T10:35:09Z</time>
      </trkpt>
      <trkpt lat="46.18719" lon="-1.01224">
        <ele>34.1</ele>
        <time>2015-11-23T10:35:23Z</time>
      </trkpt>
      <trkpt lat="46.18711" lon="-1.01199">
        <ele>34.1</ele>
        <time>2015-11-23T10:35:38Z</time>
      </trkpt>
      <trkpt lat="46.18705" lon="-1.01183">
        <ele>34</ele>
        <time>2015-11-23T10:35:49Z</time>
      </trkpt>
      <trkpt lat="46.18699" lon="-1.01157">
        <ele>34</ele>
        <time>2015-11-23T10:36:06Z</time>
      </trkpt>
      <trkpt lat="46.1869" lon="-1.01134">
        <ele>34.2</ele>
        <time>2015-11-23T10:36:20Z</time>
      </trkpt>
      <trkpt lat="46.18678" lon="-1.01113">
        <ele>34.6</ele>
        <time>2015-11-23T10:36:35Z</time>
      </trkpt>
      <trkpt lat="46.18667" lon="-1.01094">
        <ele>34.4</ele>
        <time>2015-11-23T10:36:50Z</time>
      </trkpt>
      <trkpt lat="46.18658" lon="-1.01076">
        <ele>34.2</ele>
        <time>2015-11-23T10:37:03Z</time>
      </trkpt>
      <trkpt lat="46.18658" lon="-1.01074">
        <ele>34.2</ele>
        <time>2015-11-23T10:37:04Z</time>
      </trkpt>
      <trkpt lat="46.18655" lon="-1.0107">
        <ele>34.2</ele>
        <time>2015-11-23T10:37:08Z</time>
      </trkpt>
      <trkpt lat="46.18649" lon="-1.01062">
        <ele>34.2</ele>
        <time>2015-11-23T10:37:17Z</time>
      </trkpt>
      <trkpt lat="46.18646" lon="-1.01059">
        <ele>34.1</ele>
        <time>2015-11-23T10:37:22Z</time>
      </trkpt>
      <trkpt lat="46.18637" lon="-1.01037">
        <ele>34</ele>
        <time>2015-11-23T10:37:51Z</time>
      </trkpt>
      <trkpt lat="46.18624" lon="-1.01015">
        <ele>33.8</ele>
        <time>2015-11-23T10:38:03Z</time>
      </trkpt>
      <trkpt lat="46.18612" lon="-1.00995">
        <ele>33.8</ele>
        <time>2015-11-23T10:38:15Z</time>
      </trkpt>
      <trkpt lat="46.18601" lon="-1.00974">
        <ele>33.4</ele>
        <time>2015-11-23T10:38:29Z</time>
      </trkpt>
      <trkpt lat="46.18599" lon="-1.00973">
        <ele>33.4</ele>
        <time>2015-11-23T10:38:30Z</time>
      </trkpt>
      <trkpt lat="46.18584" lon="-1.0096">
        <ele>34</ele>
        <time>2015-11-23T10:38:46Z</time>
      </trkpt>
      <trkpt lat="46.18584" lon="-1.00959">
        <ele>34</ele>
        <time>2015-11-23T10:38:47Z</time>
      </trkpt>
      <trkpt lat="46.18581" lon="-1.00938">
        <ele>34</ele>
        <time>2015-11-23T10:39:02Z</time>
      </trkpt>
      <trkpt lat="46.18568" lon="-1.00919">
        <ele>34</ele>
        <time>2015-11-23T10:39:14Z</time>
      </trkpt>
      <trkpt lat="46.18566" lon="-1.00914">
        <ele>34</ele>
        <time>2015-11-23T10:39:17Z</time>
      </trkpt>
      <trkpt lat="46.18552" lon="-1.00893">
        <ele>34.1</ele>
        <time>2015-11-23T10:39:30Z</time>
      </trkpt>
      <trkpt lat="46.1854" lon="-1.00873">
        <ele>34</ele>
        <time>2015-11-23T10:39:43Z</time>
      </trkpt>
      <trkpt lat="46.18525" lon="-1.00854">
        <ele>33.8</ele>
        <time>2015-11-23T10:39:58Z</time>
      </trkpt>
      <trkpt lat="46.18525" lon="-1.00853">
        <ele>33.8</ele>
        <time>2015-11-23T10:39:59Z</time>
      </trkpt>
      <trkpt lat="46.18521" lon="-1.00848">
        <ele>33.6</ele>
        <time>2015-11-23T10:40:04Z</time>
      </trkpt>
      <trkpt lat="46.18517" lon="-1.00845">
        <ele>33.6</ele>
        <time>2015-11-23T10:40:08Z</time>
      </trkpt>
      <trkpt lat="46.18515" lon="-1.00841">
        <ele>33.6</ele>
        <time>2015-11-23T10:40:15Z</time>
      </trkpt>
      <trkpt lat="46.18505" lon="-1.00836">
        <ele>33.9</ele>
        <time>2015-11-23T10:40:24Z</time>
      </trkpt>
      <trkpt lat="46.18505" lon="-1.00837">
        <ele>33.8</ele>
        <time>2015-11-23T10:40:26Z</time>
      </trkpt>
      <trkpt lat="46.18509" lon="-1.00834">
        <ele>33.7</ele>
        <time>2015-11-23T10:40:30Z</time>
      </trkpt>
      <trkpt lat="46.185" lon="-1.00839">
        <ele>34</ele>
        <time>2015-11-23T10:41:41Z</time>
      </trkpt>
      <trkpt lat="46.18496" lon="-1.00842">
        <ele>34</ele>
        <time>2015-11-23T10:41:45Z</time>
      </trkpt>
      <trkpt lat="46.18479" lon="-1.00852">
        <ele>34.5</ele>
        <time>2015-11-23T10:41:58Z</time>
      </trkpt>
      <trkpt lat="46.18463" lon="-1.00858">
        <ele>34.9</ele>
        <time>2015-11-23T10:42:21Z</time>
      </trkpt>
      <trkpt lat="46.18461" lon="-1.00857">
        <ele>34.9</ele>
        <time>2015-11-23T10:42:24Z</time>
      </trkpt>
      <trkpt lat="46.18456" lon="-1.00856">
        <ele>34.9</ele>
        <time>2015-11-23T10:42:28Z</time>
      </trkpt>
      <trkpt lat="46.18451" lon="-1.00849">
        <ele>34.9</ele>
        <time>2015-11-23T10:42:35Z</time>
      </trkpt>
      <trkpt lat="46.18448" lon="-1.00845">
        <ele>34.9</ele>
        <time>2015-11-23T10:42:39Z</time>
      </trkpt>
      <trkpt lat="46.18449" lon="-1.00848">
        <ele>34.9</ele>
        <time>2015-11-23T10:46:41Z</time>
      </trkpt>
      <trkpt lat="46.18447" lon="-1.00847">
        <ele>35</ele>
        <time>2015-11-23T10:49:17Z</time>
      </trkpt>
      <trkpt lat="46.18445" lon="-1.00845">
        <ele>35</ele>
        <time>2015-11-23T10:49:45Z</time>
      </trkpt>
      <trkpt lat="46.18453" lon="-1.00851">
        <ele>34.9</ele>
        <time>2015-11-23T10:51:48Z</time>
      </trkpt>
      <trkpt lat="46.18452" lon="-1.00848">
        <ele>34.9</ele>
        <time>2015-11-23T10:52:08Z</time>
      </trkpt>
      <trkpt lat="46.18455" lon="-1.00841">
        <ele>34.7</ele>
        <time>2015-11-23T10:53:34Z</time>
      </trkpt>
      <trkpt lat="46.18452" lon="-1.0084">
        <ele>34.8</ele>
        <time>2015-11-23T10:54:56Z</time>
      </trkpt>
    </trkseg>
  </trk>
</gpx>